<?xml version="1.0" encoding="UTF-8" standalone="no" ?>
<gpx xmlns="http://www.topografix.com/GPX/1/1" xmlns:xsi="http://www.w3.org/2001/XMLSchema-instance" xsi:schemaLocation="http://www.topografix.com/GPX/1/1 http://www.topografix.com/GPX/1/1/gpx.xsd" version="1.1" creator="VisuGPX - https://www.visugpx.com">
  <metadata>
    <name>Treuskoad -- EHPAD Chateauneuf</name>
  </metadata>
  <trk>
    <name><![CDATA[Treuskoad -- EHPAD Chateauneuf_2]]></name>
    <trkseg>
      <trkpt lat="48.17459" lon="-3.83164">
        <ele>101</ele>
        <time>2020-05-17T15:28:45.610Z</time>
      </trkpt>
      <trkpt lat="48.17461" lon="-3.83166">
        <ele>101</ele>
        <time>2020-05-17T15:28:46.611Z</time>
      </trkpt>
      <trkpt lat="48.17486" lon="-3.83186">
        <ele>101</ele>
        <time>2020-05-17T15:28:47.610Z</time>
      </trkpt>
      <trkpt lat="48.17476" lon="-3.83177">
        <ele>101</ele>
        <time>2020-05-17T15:28:48.611Z</time>
      </trkpt>
      <trkpt lat="48.17473" lon="-3.83176">
        <ele>100</ele>
        <time>2020-05-17T15:28:49.610Z</time>
      </trkpt>
      <trkpt lat="48.1747" lon="-3.83176">
        <ele>100</ele>
        <time>2020-05-17T15:28:50.611Z</time>
      </trkpt>
      <trkpt lat="48.1747" lon="-3.83178">
        <ele>99</ele>
        <time>2020-05-17T15:28:51.611Z</time>
      </trkpt>
      <trkpt lat="48.17471" lon="-3.8318">
        <ele>99</ele>
        <time>2020-05-17T15:28:52.610Z</time>
      </trkpt>
      <trkpt lat="48.17472" lon="-3.83183">
        <ele>99</ele>
        <time>2020-05-17T15:28:53.611Z</time>
      </trkpt>
      <trkpt lat="48.17474" lon="-3.83185">
        <ele>98</ele>
        <time>2020-05-17T15:28:54.610Z</time>
      </trkpt>
      <trkpt lat="48.17476" lon="-3.83187">
        <ele>98</ele>
        <time>2020-05-17T15:28:55.610Z</time>
      </trkpt>
      <trkpt lat="48.17478" lon="-3.83189">
        <ele>97</ele>
        <time>2020-05-17T15:28:56.611Z</time>
      </trkpt>
      <trkpt lat="48.17482" lon="-3.83191">
        <ele>97</ele>
        <time>2020-05-17T15:28:57.610Z</time>
      </trkpt>
      <trkpt lat="48.17485" lon="-3.83192">
        <ele>97</ele>
        <time>2020-05-17T15:28:58.611Z</time>
      </trkpt>
      <trkpt lat="48.17488" lon="-3.83195">
        <ele>96</ele>
        <time>2020-05-17T15:28:59.610Z</time>
      </trkpt>
      <trkpt lat="48.17491" lon="-3.83197">
        <ele>96</ele>
        <time>2020-05-17T15:29:00.611Z</time>
      </trkpt>
      <trkpt lat="48.17494" lon="-3.83199">
        <ele>96</ele>
        <time>2020-05-17T15:29:01.611Z</time>
      </trkpt>
      <trkpt lat="48.17497" lon="-3.832">
        <ele>95</ele>
        <time>2020-05-17T15:29:02.611Z</time>
      </trkpt>
      <trkpt lat="48.175" lon="-3.83202">
        <ele>95</ele>
        <time>2020-05-17T15:29:03.610Z</time>
      </trkpt>
      <trkpt lat="48.17502" lon="-3.83204">
        <ele>94</ele>
        <time>2020-05-17T15:29:04.610Z</time>
      </trkpt>
      <trkpt lat="48.17506" lon="-3.83207">
        <ele>94</ele>
        <time>2020-05-17T15:29:05.611Z</time>
      </trkpt>
      <trkpt lat="48.17509" lon="-3.83209">
        <ele>94</ele>
        <time>2020-05-17T15:29:06.611Z</time>
      </trkpt>
      <trkpt lat="48.17513" lon="-3.83212">
        <ele>93</ele>
        <time>2020-05-17T15:29:07.610Z</time>
      </trkpt>
      <trkpt lat="48.17516" lon="-3.83214">
        <ele>92</ele>
        <time>2020-05-17T15:29:08.610Z</time>
      </trkpt>
      <trkpt lat="48.1752" lon="-3.83216">
        <ele>92</ele>
        <time>2020-05-17T15:29:09.611Z</time>
      </trkpt>
      <trkpt lat="48.17524" lon="-3.83219">
        <ele>91</ele>
        <time>2020-05-17T15:29:10.610Z</time>
      </trkpt>
      <trkpt lat="48.17528" lon="-3.83221">
        <ele>90</ele>
        <time>2020-05-17T15:29:11.611Z</time>
      </trkpt>
      <trkpt lat="48.17532" lon="-3.83224">
        <ele>90</ele>
        <time>2020-05-17T15:29:12.611Z</time>
      </trkpt>
      <trkpt lat="48.17536" lon="-3.83226">
        <ele>89</ele>
        <time>2020-05-17T15:29:13.610Z</time>
      </trkpt>
      <trkpt lat="48.17541" lon="-3.83229">
        <ele>88</ele>
        <time>2020-05-17T15:29:14.611Z</time>
      </trkpt>
      <trkpt lat="48.17545" lon="-3.83231">
        <ele>88</ele>
        <time>2020-05-17T15:29:15.611Z</time>
      </trkpt>
      <trkpt lat="48.1755" lon="-3.83234">
        <ele>87</ele>
        <time>2020-05-17T15:29:16.611Z</time>
      </trkpt>
      <trkpt lat="48.17555" lon="-3.83237">
        <ele>87</ele>
        <time>2020-05-17T15:29:17.611Z</time>
      </trkpt>
      <trkpt lat="48.1756" lon="-3.83241">
        <ele>86</ele>
        <time>2020-05-17T15:29:18.610Z</time>
      </trkpt>
      <trkpt lat="48.17565" lon="-3.83244">
        <ele>85</ele>
        <time>2020-05-17T15:29:19.611Z</time>
      </trkpt>
      <trkpt lat="48.17571" lon="-3.83248">
        <ele>85</ele>
        <time>2020-05-17T15:29:20.611Z</time>
      </trkpt>
      <trkpt lat="48.17577" lon="-3.83252">
        <ele>84</ele>
        <time>2020-05-17T15:29:21.611Z</time>
      </trkpt>
      <trkpt lat="48.17583" lon="-3.83256">
        <ele>83</ele>
        <time>2020-05-17T15:29:22.610Z</time>
      </trkpt>
      <trkpt lat="48.17589" lon="-3.83259">
        <ele>82</ele>
        <time>2020-05-17T15:29:23.611Z</time>
      </trkpt>
      <trkpt lat="48.17594" lon="-3.83261">
        <ele>82</ele>
        <time>2020-05-17T15:29:24.610Z</time>
      </trkpt>
      <trkpt lat="48.17598" lon="-3.83263">
        <ele>81</ele>
        <time>2020-05-17T15:29:25.611Z</time>
      </trkpt>
      <trkpt lat="48.17601" lon="-3.83263">
        <ele>80</ele>
        <time>2020-05-17T15:29:26.611Z</time>
      </trkpt>
      <trkpt lat="48.17604" lon="-3.83264">
        <ele>80</ele>
        <time>2020-05-17T15:29:27.611Z</time>
      </trkpt>
      <trkpt lat="48.17606" lon="-3.83263">
        <ele>79</ele>
        <time>2020-05-17T15:29:28.611Z</time>
      </trkpt>
      <trkpt lat="48.17607" lon="-3.83263">
        <ele>79</ele>
        <time>2020-05-17T15:29:29.610Z</time>
      </trkpt>
      <trkpt lat="48.17607" lon="-3.83261">
        <ele>79</ele>
        <time>2020-05-17T15:29:30.611Z</time>
      </trkpt>
      <trkpt lat="48.17608" lon="-3.8326">
        <ele>79</ele>
        <time>2020-05-17T15:29:31.610Z</time>
      </trkpt>
      <trkpt lat="48.17608" lon="-3.83259">
        <ele>79</ele>
        <time>2020-05-17T15:29:32.611Z</time>
      </trkpt>
      <trkpt lat="48.17608" lon="-3.83258">
        <ele>79</ele>
        <time>2020-05-17T15:29:33.611Z</time>
      </trkpt>
      <trkpt lat="48.17609" lon="-3.83257">
        <ele>79</ele>
        <time>2020-05-17T15:29:34.611Z</time>
      </trkpt>
      <trkpt lat="48.17611" lon="-3.83258">
        <ele>79</ele>
        <time>2020-05-17T15:29:35.611Z</time>
      </trkpt>
      <trkpt lat="48.17612" lon="-3.8326">
        <ele>79</ele>
        <time>2020-05-17T15:29:36.611Z</time>
      </trkpt>
      <trkpt lat="48.17614" lon="-3.83263">
        <ele>78</ele>
        <time>2020-05-17T15:29:37.611Z</time>
      </trkpt>
      <trkpt lat="48.17615" lon="-3.83267">
        <ele>78</ele>
        <time>2020-05-17T15:29:38.611Z</time>
      </trkpt>
      <trkpt lat="48.17617" lon="-3.83272">
        <ele>78</ele>
        <time>2020-05-17T15:29:39.611Z</time>
      </trkpt>
      <trkpt lat="48.17618" lon="-3.83277">
        <ele>78</ele>
        <time>2020-05-17T15:29:40.611Z</time>
      </trkpt>
      <trkpt lat="48.1762" lon="-3.83283">
        <ele>78</ele>
        <time>2020-05-17T15:29:41.610Z</time>
      </trkpt>
      <trkpt lat="48.17623" lon="-3.8329">
        <ele>79</ele>
        <time>2020-05-17T15:29:42.611Z</time>
      </trkpt>
      <trkpt lat="48.17627" lon="-3.83296">
        <ele>79</ele>
        <time>2020-05-17T15:29:43.611Z</time>
      </trkpt>
      <trkpt lat="48.17632" lon="-3.83303">
        <ele>79</ele>
        <time>2020-05-17T15:29:44.610Z</time>
      </trkpt>
      <trkpt lat="48.17637" lon="-3.83309">
        <ele>79</ele>
        <time>2020-05-17T15:29:45.611Z</time>
      </trkpt>
      <trkpt lat="48.17643" lon="-3.83316">
        <ele>79</ele>
        <time>2020-05-17T15:29:46.611Z</time>
      </trkpt>
      <trkpt lat="48.1765" lon="-3.83324">
        <ele>78</ele>
        <time>2020-05-17T15:29:47.610Z</time>
      </trkpt>
      <trkpt lat="48.17656" lon="-3.83331">
        <ele>78</ele>
        <time>2020-05-17T15:29:48.611Z</time>
      </trkpt>
      <trkpt lat="48.17662" lon="-3.83339">
        <ele>78</ele>
        <time>2020-05-17T15:29:49.611Z</time>
      </trkpt>
      <trkpt lat="48.17669" lon="-3.83348">
        <ele>78</ele>
        <time>2020-05-17T15:29:50.610Z</time>
      </trkpt>
      <trkpt lat="48.17676" lon="-3.83357">
        <ele>77</ele>
        <time>2020-05-17T15:29:51.611Z</time>
      </trkpt>
      <trkpt lat="48.17682" lon="-3.83366">
        <ele>77</ele>
        <time>2020-05-17T15:29:52.610Z</time>
      </trkpt>
      <trkpt lat="48.17688" lon="-3.83374">
        <ele>76</ele>
        <time>2020-05-17T15:29:53.611Z</time>
      </trkpt>
      <trkpt lat="48.17694" lon="-3.83383">
        <ele>76</ele>
        <time>2020-05-17T15:29:54.611Z</time>
      </trkpt>
      <trkpt lat="48.17699" lon="-3.83392">
        <ele>75</ele>
        <time>2020-05-17T15:29:55.610Z</time>
      </trkpt>
      <trkpt lat="48.17704" lon="-3.83401">
        <ele>75</ele>
        <time>2020-05-17T15:29:56.610Z</time>
      </trkpt>
      <trkpt lat="48.17708" lon="-3.8341">
        <ele>74</ele>
        <time>2020-05-17T15:29:57.611Z</time>
      </trkpt>
      <trkpt lat="48.17712" lon="-3.83419">
        <ele>74</ele>
        <time>2020-05-17T15:29:58.611Z</time>
      </trkpt>
      <trkpt lat="48.17715" lon="-3.83427">
        <ele>74</ele>
        <time>2020-05-17T15:29:59.611Z</time>
      </trkpt>
      <trkpt lat="48.17718" lon="-3.83435">
        <ele>73</ele>
        <time>2020-05-17T15:30:00.611Z</time>
      </trkpt>
      <trkpt lat="48.1772" lon="-3.83443">
        <ele>73</ele>
        <time>2020-05-17T15:30:01.610Z</time>
      </trkpt>
      <trkpt lat="48.17722" lon="-3.8345">
        <ele>73</ele>
        <time>2020-05-17T15:30:02.611Z</time>
      </trkpt>
      <trkpt lat="48.17724" lon="-3.83457">
        <ele>73</ele>
        <time>2020-05-17T15:30:03.610Z</time>
      </trkpt>
      <trkpt lat="48.17727" lon="-3.83462">
        <ele>72</ele>
        <time>2020-05-17T15:30:04.611Z</time>
      </trkpt>
      <trkpt lat="48.1773" lon="-3.83466">
        <ele>72</ele>
        <time>2020-05-17T15:30:05.611Z</time>
      </trkpt>
      <trkpt lat="48.17734" lon="-3.83468">
        <ele>73</ele>
        <time>2020-05-17T15:30:06.610Z</time>
      </trkpt>
      <trkpt lat="48.17738" lon="-3.83469">
        <ele>73</ele>
        <time>2020-05-17T15:30:07.611Z</time>
      </trkpt>
      <trkpt lat="48.17741" lon="-3.83468">
        <ele>73</ele>
        <time>2020-05-17T15:30:08.610Z</time>
      </trkpt>
      <trkpt lat="48.17745" lon="-3.83467">
        <ele>73</ele>
        <time>2020-05-17T15:30:09.611Z</time>
      </trkpt>
      <trkpt lat="48.17749" lon="-3.83465">
        <ele>74</ele>
        <time>2020-05-17T15:30:10.611Z</time>
      </trkpt>
      <trkpt lat="48.17753" lon="-3.83463">
        <ele>74</ele>
        <time>2020-05-17T15:30:11.611Z</time>
      </trkpt>
      <trkpt lat="48.17758" lon="-3.8346">
        <ele>74</ele>
        <time>2020-05-17T15:30:12.610Z</time>
      </trkpt>
      <trkpt lat="48.17762" lon="-3.83457">
        <ele>74</ele>
        <time>2020-05-17T15:30:13.611Z</time>
      </trkpt>
      <trkpt lat="48.17766" lon="-3.83453">
        <ele>73</ele>
        <time>2020-05-17T15:30:14.611Z</time>
      </trkpt>
      <trkpt lat="48.17771" lon="-3.83449">
        <ele>73</ele>
        <time>2020-05-17T15:30:15.611Z</time>
      </trkpt>
      <trkpt lat="48.17775" lon="-3.83445">
        <ele>73</ele>
        <time>2020-05-17T15:30:16.611Z</time>
      </trkpt>
      <trkpt lat="48.17779" lon="-3.83441">
        <ele>73</ele>
        <time>2020-05-17T15:30:17.611Z</time>
      </trkpt>
      <trkpt lat="48.17783" lon="-3.83437">
        <ele>73</ele>
        <time>2020-05-17T15:30:18.611Z</time>
      </trkpt>
      <trkpt lat="48.17786" lon="-3.83432">
        <ele>73</ele>
        <time>2020-05-17T15:30:19.610Z</time>
      </trkpt>
      <trkpt lat="48.1779" lon="-3.83427">
        <ele>73</ele>
        <time>2020-05-17T15:30:20.610Z</time>
      </trkpt>
      <trkpt lat="48.17793" lon="-3.83422">
        <ele>73</ele>
        <time>2020-05-17T15:30:21.610Z</time>
      </trkpt>
      <trkpt lat="48.17797" lon="-3.83417">
        <ele>73</ele>
        <time>2020-05-17T15:30:22.610Z</time>
      </trkpt>
      <trkpt lat="48.178" lon="-3.83413">
        <ele>73</ele>
        <time>2020-05-17T15:30:23.611Z</time>
      </trkpt>
      <trkpt lat="48.17803" lon="-3.83409">
        <ele>73</ele>
        <time>2020-05-17T15:30:24.611Z</time>
      </trkpt>
      <trkpt lat="48.17806" lon="-3.83405">
        <ele>73</ele>
        <time>2020-05-17T15:30:25.611Z</time>
      </trkpt>
      <trkpt lat="48.17809" lon="-3.834">
        <ele>74</ele>
        <time>2020-05-17T15:30:26.610Z</time>
      </trkpt>
      <trkpt lat="48.17812" lon="-3.83395">
        <ele>74</ele>
        <time>2020-05-17T15:30:27.611Z</time>
      </trkpt>
      <trkpt lat="48.17814" lon="-3.8339">
        <ele>74</ele>
        <time>2020-05-17T15:30:28.611Z</time>
      </trkpt>
      <trkpt lat="48.17817" lon="-3.83383">
        <ele>75</ele>
        <time>2020-05-17T15:30:29.610Z</time>
      </trkpt>
      <trkpt lat="48.17819" lon="-3.83377">
        <ele>75</ele>
        <time>2020-05-17T15:30:30.611Z</time>
      </trkpt>
      <trkpt lat="48.17822" lon="-3.83371">
        <ele>75</ele>
        <time>2020-05-17T15:30:31.611Z</time>
      </trkpt>
      <trkpt lat="48.17824" lon="-3.83366">
        <ele>76</ele>
        <time>2020-05-17T15:30:32.611Z</time>
      </trkpt>
      <trkpt lat="48.17827" lon="-3.83361">
        <ele>76</ele>
        <time>2020-05-17T15:30:33.611Z</time>
      </trkpt>
      <trkpt lat="48.17828" lon="-3.83354">
        <ele>76</ele>
        <time>2020-05-17T15:30:34.610Z</time>
      </trkpt>
      <trkpt lat="48.17831" lon="-3.83347">
        <ele>76</ele>
        <time>2020-05-17T15:30:35.610Z</time>
      </trkpt>
      <trkpt lat="48.17833" lon="-3.83342">
        <ele>77</ele>
        <time>2020-05-17T15:30:36.611Z</time>
      </trkpt>
      <trkpt lat="48.17835" lon="-3.83337">
        <ele>77</ele>
        <time>2020-05-17T15:30:37.610Z</time>
      </trkpt>
      <trkpt lat="48.17839" lon="-3.83331">
        <ele>77</ele>
        <time>2020-05-17T15:30:38.611Z</time>
      </trkpt>
      <trkpt lat="48.17841" lon="-3.83325">
        <ele>77</ele>
        <time>2020-05-17T15:30:39.610Z</time>
      </trkpt>
      <trkpt lat="48.17843" lon="-3.83321">
        <ele>77</ele>
        <time>2020-05-17T15:30:40.610Z</time>
      </trkpt>
      <trkpt lat="48.17845" lon="-3.83316">
        <ele>78</ele>
        <time>2020-05-17T15:30:41.611Z</time>
      </trkpt>
      <trkpt lat="48.17847" lon="-3.83312">
        <ele>78</ele>
        <time>2020-05-17T15:30:42.610Z</time>
      </trkpt>
      <trkpt lat="48.1785" lon="-3.83307">
        <ele>78</ele>
        <time>2020-05-17T15:30:43.611Z</time>
      </trkpt>
      <trkpt lat="48.17852" lon="-3.83303">
        <ele>79</ele>
        <time>2020-05-17T15:30:44.610Z</time>
      </trkpt>
      <trkpt lat="48.17855" lon="-3.83298">
        <ele>79</ele>
        <time>2020-05-17T15:30:45.611Z</time>
      </trkpt>
      <trkpt lat="48.17858" lon="-3.83294">
        <ele>79</ele>
        <time>2020-05-17T15:30:46.611Z</time>
      </trkpt>
      <trkpt lat="48.17861" lon="-3.8329">
        <ele>79</ele>
        <time>2020-05-17T15:30:47.610Z</time>
      </trkpt>
      <trkpt lat="48.17864" lon="-3.83287">
        <ele>79</ele>
        <time>2020-05-17T15:30:48.611Z</time>
      </trkpt>
      <trkpt lat="48.17868" lon="-3.83284">
        <ele>79</ele>
        <time>2020-05-17T15:30:49.611Z</time>
      </trkpt>
      <trkpt lat="48.17871" lon="-3.83282">
        <ele>79</ele>
        <time>2020-05-17T15:30:50.611Z</time>
      </trkpt>
      <trkpt lat="48.17874" lon="-3.83279">
        <ele>79</ele>
        <time>2020-05-17T15:30:51.611Z</time>
      </trkpt>
      <trkpt lat="48.17878" lon="-3.83276">
        <ele>79</ele>
        <time>2020-05-17T15:30:52.610Z</time>
      </trkpt>
      <trkpt lat="48.17881" lon="-3.83273">
        <ele>79</ele>
        <time>2020-05-17T15:30:53.611Z</time>
      </trkpt>
      <trkpt lat="48.17883" lon="-3.83271">
        <ele>79</ele>
        <time>2020-05-17T15:30:54.611Z</time>
      </trkpt>
      <trkpt lat="48.17886" lon="-3.83269">
        <ele>79</ele>
        <time>2020-05-17T15:30:55.610Z</time>
      </trkpt>
      <trkpt lat="48.17888" lon="-3.83267">
        <ele>79</ele>
        <time>2020-05-17T15:30:56.611Z</time>
      </trkpt>
      <trkpt lat="48.17891" lon="-3.83266">
        <ele>79</ele>
        <time>2020-05-17T15:30:57.610Z</time>
      </trkpt>
      <trkpt lat="48.17895" lon="-3.83265">
        <ele>78</ele>
        <time>2020-05-17T15:30:58.610Z</time>
      </trkpt>
      <trkpt lat="48.17898" lon="-3.83264">
        <ele>78</ele>
        <time>2020-05-17T15:30:59.611Z</time>
      </trkpt>
      <trkpt lat="48.17902" lon="-3.83262">
        <ele>78</ele>
        <time>2020-05-17T15:31:00.611Z</time>
      </trkpt>
      <trkpt lat="48.17907" lon="-3.83259">
        <ele>78</ele>
        <time>2020-05-17T15:31:01.611Z</time>
      </trkpt>
      <trkpt lat="48.17911" lon="-3.83256">
        <ele>78</ele>
        <time>2020-05-17T15:31:02.611Z</time>
      </trkpt>
      <trkpt lat="48.17914" lon="-3.83255">
        <ele>78</ele>
        <time>2020-05-17T15:31:03.611Z</time>
      </trkpt>
      <trkpt lat="48.17917" lon="-3.83255">
        <ele>78</ele>
        <time>2020-05-17T15:31:04.611Z</time>
      </trkpt>
      <trkpt lat="48.1792" lon="-3.83255">
        <ele>78</ele>
        <time>2020-05-17T15:31:05.611Z</time>
      </trkpt>
      <trkpt lat="48.17924" lon="-3.83255">
        <ele>78</ele>
        <time>2020-05-17T15:31:06.611Z</time>
      </trkpt>
      <trkpt lat="48.17928" lon="-3.83254">
        <ele>78</ele>
        <time>2020-05-17T15:31:07.611Z</time>
      </trkpt>
      <trkpt lat="48.17932" lon="-3.83253">
        <ele>78</ele>
        <time>2020-05-17T15:31:08.611Z</time>
      </trkpt>
      <trkpt lat="48.17939" lon="-3.83252">
        <ele>77</ele>
        <time>2020-05-17T15:31:09.610Z</time>
      </trkpt>
      <trkpt lat="48.17943" lon="-3.8325">
        <ele>77</ele>
        <time>2020-05-17T15:31:10.610Z</time>
      </trkpt>
      <trkpt lat="48.17947" lon="-3.83249">
        <ele>77</ele>
        <time>2020-05-17T15:31:11.611Z</time>
      </trkpt>
      <trkpt lat="48.17952" lon="-3.83247">
        <ele>77</ele>
        <time>2020-05-17T15:31:12.610Z</time>
      </trkpt>
      <trkpt lat="48.17955" lon="-3.83245">
        <ele>77</ele>
        <time>2020-05-17T15:31:13.611Z</time>
      </trkpt>
      <trkpt lat="48.17958" lon="-3.83244">
        <ele>77</ele>
        <time>2020-05-17T15:31:14.611Z</time>
      </trkpt>
      <trkpt lat="48.17961" lon="-3.83243">
        <ele>77</ele>
        <time>2020-05-17T15:31:15.610Z</time>
      </trkpt>
      <trkpt lat="48.17964" lon="-3.83242">
        <ele>77</ele>
        <time>2020-05-17T15:31:16.611Z</time>
      </trkpt>
      <trkpt lat="48.17967" lon="-3.83241">
        <ele>77</ele>
        <time>2020-05-17T15:31:17.610Z</time>
      </trkpt>
      <trkpt lat="48.1797" lon="-3.83239">
        <ele>77</ele>
        <time>2020-05-17T15:31:18.611Z</time>
      </trkpt>
      <trkpt lat="48.17974" lon="-3.83237">
        <ele>77</ele>
        <time>2020-05-17T15:31:19.611Z</time>
      </trkpt>
      <trkpt lat="48.17977" lon="-3.83234">
        <ele>77</ele>
        <time>2020-05-17T15:31:20.611Z</time>
      </trkpt>
      <trkpt lat="48.1798" lon="-3.83231">
        <ele>77</ele>
        <time>2020-05-17T15:31:21.610Z</time>
      </trkpt>
      <trkpt lat="48.17981" lon="-3.83229">
        <ele>77</ele>
        <time>2020-05-17T15:31:22.610Z</time>
      </trkpt>
      <trkpt lat="48.17983" lon="-3.83226">
        <ele>77</ele>
        <time>2020-05-17T15:31:23.611Z</time>
      </trkpt>
      <trkpt lat="48.17985" lon="-3.83223">
        <ele>77</ele>
        <time>2020-05-17T15:31:24.611Z</time>
      </trkpt>
      <trkpt lat="48.17987" lon="-3.8322">
        <ele>77</ele>
        <time>2020-05-17T15:31:25.611Z</time>
      </trkpt>
      <trkpt lat="48.17989" lon="-3.83217">
        <ele>77</ele>
        <time>2020-05-17T15:31:26.611Z</time>
      </trkpt>
      <trkpt lat="48.17991" lon="-3.83214">
        <ele>77</ele>
        <time>2020-05-17T15:31:27.611Z</time>
      </trkpt>
      <trkpt lat="48.17995" lon="-3.8321">
        <ele>77</ele>
        <time>2020-05-17T15:31:28.611Z</time>
      </trkpt>
      <trkpt lat="48.17998" lon="-3.83206">
        <ele>77</ele>
        <time>2020-05-17T15:31:29.611Z</time>
      </trkpt>
      <trkpt lat="48.18001" lon="-3.83202">
        <ele>77</ele>
        <time>2020-05-17T15:31:30.611Z</time>
      </trkpt>
      <trkpt lat="48.18004" lon="-3.83198">
        <ele>77</ele>
        <time>2020-05-17T15:31:31.611Z</time>
      </trkpt>
      <trkpt lat="48.18008" lon="-3.83193">
        <ele>77</ele>
        <time>2020-05-17T15:31:32.611Z</time>
      </trkpt>
      <trkpt lat="48.18013" lon="-3.83189">
        <ele>77</ele>
        <time>2020-05-17T15:31:33.611Z</time>
      </trkpt>
      <trkpt lat="48.18017" lon="-3.83186">
        <ele>78</ele>
        <time>2020-05-17T15:31:34.611Z</time>
      </trkpt>
      <trkpt lat="48.18022" lon="-3.83182">
        <ele>78</ele>
        <time>2020-05-17T15:31:35.611Z</time>
      </trkpt>
      <trkpt lat="48.18026" lon="-3.83178">
        <ele>78</ele>
        <time>2020-05-17T15:31:36.610Z</time>
      </trkpt>
      <trkpt lat="48.1803" lon="-3.83174">
        <ele>79</ele>
        <time>2020-05-17T15:31:37.611Z</time>
      </trkpt>
      <trkpt lat="48.18034" lon="-3.8317">
        <ele>79</ele>
        <time>2020-05-17T15:31:38.611Z</time>
      </trkpt>
      <trkpt lat="48.18038" lon="-3.83165">
        <ele>80</ele>
        <time>2020-05-17T15:31:39.611Z</time>
      </trkpt>
      <trkpt lat="48.18041" lon="-3.8316">
        <ele>80</ele>
        <time>2020-05-17T15:31:40.611Z</time>
      </trkpt>
      <trkpt lat="48.18043" lon="-3.83156">
        <ele>81</ele>
        <time>2020-05-17T15:31:41.611Z</time>
      </trkpt>
      <trkpt lat="48.18045" lon="-3.83151">
        <ele>81</ele>
        <time>2020-05-17T15:31:42.611Z</time>
      </trkpt>
      <trkpt lat="48.18047" lon="-3.83148">
        <ele>82</ele>
        <time>2020-05-17T15:31:43.610Z</time>
      </trkpt>
      <trkpt lat="48.18048" lon="-3.83145">
        <ele>82</ele>
        <time>2020-05-17T15:31:44.611Z</time>
      </trkpt>
      <trkpt lat="48.18049" lon="-3.83142">
        <ele>82</ele>
        <time>2020-05-17T15:31:45.611Z</time>
      </trkpt>
      <trkpt lat="48.1805" lon="-3.83138">
        <ele>82</ele>
        <time>2020-05-17T15:31:46.610Z</time>
      </trkpt>
      <trkpt lat="48.18052" lon="-3.83136">
        <ele>82</ele>
        <time>2020-05-17T15:31:47.611Z</time>
      </trkpt>
      <trkpt lat="48.18055" lon="-3.83133">
        <ele>82</ele>
        <time>2020-05-17T15:31:48.610Z</time>
      </trkpt>
      <trkpt lat="48.18061" lon="-3.83129">
        <ele>82</ele>
        <time>2020-05-17T15:31:49.610Z</time>
      </trkpt>
      <trkpt lat="48.18065" lon="-3.83126">
        <ele>82</ele>
        <time>2020-05-17T15:31:50.610Z</time>
      </trkpt>
      <trkpt lat="48.18068" lon="-3.83123">
        <ele>82</ele>
        <time>2020-05-17T15:31:51.610Z</time>
      </trkpt>
      <trkpt lat="48.18072" lon="-3.8312">
        <ele>82</ele>
        <time>2020-05-17T15:31:52.610Z</time>
      </trkpt>
      <trkpt lat="48.18076" lon="-3.83117">
        <ele>82</ele>
        <time>2020-05-17T15:31:53.610Z</time>
      </trkpt>
      <trkpt lat="48.1808" lon="-3.83113">
        <ele>82</ele>
        <time>2020-05-17T15:31:54.611Z</time>
      </trkpt>
      <trkpt lat="48.18083" lon="-3.83109">
        <ele>82</ele>
        <time>2020-05-17T15:31:55.611Z</time>
      </trkpt>
      <trkpt lat="48.18085" lon="-3.83106">
        <ele>83</ele>
        <time>2020-05-17T15:31:56.611Z</time>
      </trkpt>
      <trkpt lat="48.18087" lon="-3.83104">
        <ele>83</ele>
        <time>2020-05-17T15:31:57.611Z</time>
      </trkpt>
      <trkpt lat="48.1809" lon="-3.831">
        <ele>83</ele>
        <time>2020-05-17T15:31:58.610Z</time>
      </trkpt>
      <trkpt lat="48.18092" lon="-3.83096">
        <ele>83</ele>
        <time>2020-05-17T15:31:59.611Z</time>
      </trkpt>
      <trkpt lat="48.18095" lon="-3.83091">
        <ele>83</ele>
        <time>2020-05-17T15:32:00.610Z</time>
      </trkpt>
      <trkpt lat="48.18099" lon="-3.83087">
        <ele>84</ele>
        <time>2020-05-17T15:32:01.610Z</time>
      </trkpt>
      <trkpt lat="48.18101" lon="-3.83085">
        <ele>84</ele>
        <time>2020-05-17T15:32:02.610Z</time>
      </trkpt>
      <trkpt lat="48.18103" lon="-3.83082">
        <ele>84</ele>
        <time>2020-05-17T15:32:03.611Z</time>
      </trkpt>
      <trkpt lat="48.18105" lon="-3.8308">
        <ele>85</ele>
        <time>2020-05-17T15:32:04.610Z</time>
      </trkpt>
      <trkpt lat="48.18108" lon="-3.83077">
        <ele>85</ele>
        <time>2020-05-17T15:32:05.611Z</time>
      </trkpt>
      <trkpt lat="48.1811" lon="-3.83075">
        <ele>85</ele>
        <time>2020-05-17T15:32:06.610Z</time>
      </trkpt>
      <trkpt lat="48.18113" lon="-3.83073">
        <ele>85</ele>
        <time>2020-05-17T15:32:07.611Z</time>
      </trkpt>
      <trkpt lat="48.18115" lon="-3.8307">
        <ele>85</ele>
        <time>2020-05-17T15:32:08.611Z</time>
      </trkpt>
      <trkpt lat="48.18118" lon="-3.83068">
        <ele>85</ele>
        <time>2020-05-17T15:32:09.611Z</time>
      </trkpt>
      <trkpt lat="48.1812" lon="-3.83065">
        <ele>85</ele>
        <time>2020-05-17T15:32:10.611Z</time>
      </trkpt>
      <trkpt lat="48.18123" lon="-3.83063">
        <ele>85</ele>
        <time>2020-05-17T15:32:11.611Z</time>
      </trkpt>
      <trkpt lat="48.18126" lon="-3.8306">
        <ele>85</ele>
        <time>2020-05-17T15:32:12.611Z</time>
      </trkpt>
      <trkpt lat="48.18129" lon="-3.83057">
        <ele>85</ele>
        <time>2020-05-17T15:32:13.610Z</time>
      </trkpt>
      <trkpt lat="48.18135" lon="-3.83052">
        <ele>85</ele>
        <time>2020-05-17T15:32:14.611Z</time>
      </trkpt>
      <trkpt lat="48.18141" lon="-3.83048">
        <ele>85</ele>
        <time>2020-05-17T15:32:15.611Z</time>
      </trkpt>
      <trkpt lat="48.18146" lon="-3.83044">
        <ele>85</ele>
        <time>2020-05-17T15:32:16.610Z</time>
      </trkpt>
      <trkpt lat="48.18151" lon="-3.8304">
        <ele>84</ele>
        <time>2020-05-17T15:32:17.611Z</time>
      </trkpt>
      <trkpt lat="48.18154" lon="-3.83036">
        <ele>84</ele>
        <time>2020-05-17T15:32:18.611Z</time>
      </trkpt>
      <trkpt lat="48.18158" lon="-3.83033">
        <ele>84</ele>
        <time>2020-05-17T15:32:19.611Z</time>
      </trkpt>
      <trkpt lat="48.18162" lon="-3.8303">
        <ele>84</ele>
        <time>2020-05-17T15:32:20.611Z</time>
      </trkpt>
      <trkpt lat="48.18167" lon="-3.83027">
        <ele>84</ele>
        <time>2020-05-17T15:32:21.611Z</time>
      </trkpt>
      <trkpt lat="48.18171" lon="-3.83025">
        <ele>84</ele>
        <time>2020-05-17T15:32:22.611Z</time>
      </trkpt>
      <trkpt lat="48.18175" lon="-3.83022">
        <ele>84</ele>
        <time>2020-05-17T15:32:23.611Z</time>
      </trkpt>
      <trkpt lat="48.18178" lon="-3.83019">
        <ele>84</ele>
        <time>2020-05-17T15:32:24.610Z</time>
      </trkpt>
      <trkpt lat="48.18182" lon="-3.83016">
        <ele>84</ele>
        <time>2020-05-17T15:32:25.611Z</time>
      </trkpt>
      <trkpt lat="48.18186" lon="-3.83013">
        <ele>84</ele>
        <time>2020-05-17T15:32:26.611Z</time>
      </trkpt>
      <trkpt lat="48.18188" lon="-3.83011">
        <ele>84</ele>
        <time>2020-05-17T15:32:27.611Z</time>
      </trkpt>
      <trkpt lat="48.18191" lon="-3.8301">
        <ele>84</ele>
        <time>2020-05-17T15:32:28.610Z</time>
      </trkpt>
      <trkpt lat="48.18193" lon="-3.83008">
        <ele>84</ele>
        <time>2020-05-17T15:32:29.611Z</time>
      </trkpt>
      <trkpt lat="48.18196" lon="-3.83007">
        <ele>85</ele>
        <time>2020-05-17T15:32:30.611Z</time>
      </trkpt>
      <trkpt lat="48.18199" lon="-3.83005">
        <ele>85</ele>
        <time>2020-05-17T15:32:31.611Z</time>
      </trkpt>
      <trkpt lat="48.18205" lon="-3.83003">
        <ele>85</ele>
        <time>2020-05-17T15:32:32.610Z</time>
      </trkpt>
      <trkpt lat="48.1821" lon="-3.83002">
        <ele>85</ele>
        <time>2020-05-17T15:32:33.611Z</time>
      </trkpt>
      <trkpt lat="48.18216" lon="-3.83">
        <ele>85</ele>
        <time>2020-05-17T15:32:34.610Z</time>
      </trkpt>
      <trkpt lat="48.1822" lon="-3.82998">
        <ele>85</ele>
        <time>2020-05-17T15:32:35.611Z</time>
      </trkpt>
      <trkpt lat="48.18224" lon="-3.82997">
        <ele>85</ele>
        <time>2020-05-17T15:32:36.610Z</time>
      </trkpt>
      <trkpt lat="48.18229" lon="-3.82995">
        <ele>85</ele>
        <time>2020-05-17T15:32:37.611Z</time>
      </trkpt>
      <trkpt lat="48.18233" lon="-3.82994">
        <ele>85</ele>
        <time>2020-05-17T15:32:38.611Z</time>
      </trkpt>
      <trkpt lat="48.18239" lon="-3.82992">
        <ele>85</ele>
        <time>2020-05-17T15:32:39.610Z</time>
      </trkpt>
      <trkpt lat="48.18244" lon="-3.82991">
        <ele>86</ele>
        <time>2020-05-17T15:32:40.611Z</time>
      </trkpt>
      <trkpt lat="48.1825" lon="-3.8299">
        <ele>86</ele>
        <time>2020-05-17T15:32:41.611Z</time>
      </trkpt>
      <trkpt lat="48.18255" lon="-3.82989">
        <ele>86</ele>
        <time>2020-05-17T15:32:42.610Z</time>
      </trkpt>
      <trkpt lat="48.1826" lon="-3.82987">
        <ele>86</ele>
        <time>2020-05-17T15:32:43.611Z</time>
      </trkpt>
      <trkpt lat="48.18266" lon="-3.82986">
        <ele>86</ele>
        <time>2020-05-17T15:32:44.611Z</time>
      </trkpt>
      <trkpt lat="48.18274" lon="-3.82984">
        <ele>86</ele>
        <time>2020-05-17T15:32:45.611Z</time>
      </trkpt>
      <trkpt lat="48.18279" lon="-3.82982">
        <ele>86</ele>
        <time>2020-05-17T15:32:46.611Z</time>
      </trkpt>
      <trkpt lat="48.18282" lon="-3.82981">
        <ele>86</ele>
        <time>2020-05-17T15:32:47.611Z</time>
      </trkpt>
      <trkpt lat="48.18287" lon="-3.82979">
        <ele>86</ele>
        <time>2020-05-17T15:32:48.611Z</time>
      </trkpt>
      <trkpt lat="48.18291" lon="-3.82977">
        <ele>86</ele>
        <time>2020-05-17T15:32:49.611Z</time>
      </trkpt>
      <trkpt lat="48.18295" lon="-3.82974">
        <ele>86</ele>
        <time>2020-05-17T15:32:50.610Z</time>
      </trkpt>
      <trkpt lat="48.18299" lon="-3.82971">
        <ele>86</ele>
        <time>2020-05-17T15:32:51.611Z</time>
      </trkpt>
      <trkpt lat="48.18302" lon="-3.82968">
        <ele>86</ele>
        <time>2020-05-17T15:32:52.611Z</time>
      </trkpt>
      <trkpt lat="48.18308" lon="-3.82963">
        <ele>86</ele>
        <time>2020-05-17T15:32:53.611Z</time>
      </trkpt>
      <trkpt lat="48.18314" lon="-3.82958">
        <ele>86</ele>
        <time>2020-05-17T15:32:54.611Z</time>
      </trkpt>
      <trkpt lat="48.18319" lon="-3.82954">
        <ele>86</ele>
        <time>2020-05-17T15:32:55.611Z</time>
      </trkpt>
      <trkpt lat="48.18324" lon="-3.8295">
        <ele>86</ele>
        <time>2020-05-17T15:32:56.610Z</time>
      </trkpt>
      <trkpt lat="48.18329" lon="-3.82945">
        <ele>87</ele>
        <time>2020-05-17T15:32:57.610Z</time>
      </trkpt>
      <trkpt lat="48.18334" lon="-3.82941">
        <ele>87</ele>
        <time>2020-05-17T15:32:58.611Z</time>
      </trkpt>
      <trkpt lat="48.18339" lon="-3.82937">
        <ele>87</ele>
        <time>2020-05-17T15:32:59.611Z</time>
      </trkpt>
      <trkpt lat="48.18341" lon="-3.82934">
        <ele>87</ele>
        <time>2020-05-17T15:33:00.611Z</time>
      </trkpt>
      <trkpt lat="48.18344" lon="-3.82931">
        <ele>87</ele>
        <time>2020-05-17T15:33:01.610Z</time>
      </trkpt>
      <trkpt lat="48.18347" lon="-3.82928">
        <ele>87</ele>
        <time>2020-05-17T15:33:02.611Z</time>
      </trkpt>
      <trkpt lat="48.1835" lon="-3.82925">
        <ele>87</ele>
        <time>2020-05-17T15:33:03.610Z</time>
      </trkpt>
      <trkpt lat="48.18353" lon="-3.82923">
        <ele>87</ele>
        <time>2020-05-17T15:33:04.611Z</time>
      </trkpt>
      <trkpt lat="48.18356" lon="-3.8292">
        <ele>87</ele>
        <time>2020-05-17T15:33:05.611Z</time>
      </trkpt>
      <trkpt lat="48.1836" lon="-3.82918">
        <ele>87</ele>
        <time>2020-05-17T15:33:06.611Z</time>
      </trkpt>
      <trkpt lat="48.18363" lon="-3.82915">
        <ele>87</ele>
        <time>2020-05-17T15:33:07.611Z</time>
      </trkpt>
      <trkpt lat="48.18366" lon="-3.82913">
        <ele>87</ele>
        <time>2020-05-17T15:33:08.611Z</time>
      </trkpt>
      <trkpt lat="48.1837" lon="-3.82911">
        <ele>87</ele>
        <time>2020-05-17T15:33:09.611Z</time>
      </trkpt>
      <trkpt lat="48.18376" lon="-3.82907">
        <ele>87</ele>
        <time>2020-05-17T15:33:10.611Z</time>
      </trkpt>
      <trkpt lat="48.18382" lon="-3.82904">
        <ele>87</ele>
        <time>2020-05-17T15:33:11.611Z</time>
      </trkpt>
      <trkpt lat="48.18388" lon="-3.82901">
        <ele>87</ele>
        <time>2020-05-17T15:33:12.611Z</time>
      </trkpt>
      <trkpt lat="48.18395" lon="-3.82898">
        <ele>87</ele>
        <time>2020-05-17T15:33:13.611Z</time>
      </trkpt>
      <trkpt lat="48.18403" lon="-3.82896">
        <ele>86</ele>
        <time>2020-05-17T15:33:14.611Z</time>
      </trkpt>
      <trkpt lat="48.18409" lon="-3.82893">
        <ele>86</ele>
        <time>2020-05-17T15:33:15.610Z</time>
      </trkpt>
      <trkpt lat="48.18412" lon="-3.82891">
        <ele>86</ele>
        <time>2020-05-17T15:33:16.611Z</time>
      </trkpt>
      <trkpt lat="48.18415" lon="-3.82889">
        <ele>86</ele>
        <time>2020-05-17T15:33:17.611Z</time>
      </trkpt>
      <trkpt lat="48.18418" lon="-3.82887">
        <ele>86</ele>
        <time>2020-05-17T15:33:18.611Z</time>
      </trkpt>
      <trkpt lat="48.1842" lon="-3.82885">
        <ele>85</ele>
        <time>2020-05-17T15:33:19.611Z</time>
      </trkpt>
      <trkpt lat="48.18423" lon="-3.82884">
        <ele>85</ele>
        <time>2020-05-17T15:33:20.610Z</time>
      </trkpt>
      <trkpt lat="48.18426" lon="-3.82883">
        <ele>85</ele>
        <time>2020-05-17T15:33:21.611Z</time>
      </trkpt>
      <trkpt lat="48.18429" lon="-3.82881">
        <ele>85</ele>
        <time>2020-05-17T15:33:22.611Z</time>
      </trkpt>
      <trkpt lat="48.18431" lon="-3.82879">
        <ele>85</ele>
        <time>2020-05-17T15:33:23.610Z</time>
      </trkpt>
      <trkpt lat="48.18434" lon="-3.82877">
        <ele>85</ele>
        <time>2020-05-17T15:33:24.610Z</time>
      </trkpt>
      <trkpt lat="48.18438" lon="-3.82874">
        <ele>85</ele>
        <time>2020-05-17T15:33:25.611Z</time>
      </trkpt>
      <trkpt lat="48.18442" lon="-3.82873">
        <ele>85</ele>
        <time>2020-05-17T15:33:26.610Z</time>
      </trkpt>
      <trkpt lat="48.18445" lon="-3.82873">
        <ele>85</ele>
        <time>2020-05-17T15:33:27.610Z</time>
      </trkpt>
      <trkpt lat="48.18449" lon="-3.82872">
        <ele>85</ele>
        <time>2020-05-17T15:33:28.611Z</time>
      </trkpt>
      <trkpt lat="48.18455" lon="-3.82871">
        <ele>85</ele>
        <time>2020-05-17T15:33:29.611Z</time>
      </trkpt>
      <trkpt lat="48.1846" lon="-3.8287">
        <ele>85</ele>
        <time>2020-05-17T15:33:30.611Z</time>
      </trkpt>
      <trkpt lat="48.18468" lon="-3.82868">
        <ele>85</ele>
        <time>2020-05-17T15:33:31.611Z</time>
      </trkpt>
      <trkpt lat="48.18473" lon="-3.82867">
        <ele>86</ele>
        <time>2020-05-17T15:33:32.611Z</time>
      </trkpt>
      <trkpt lat="48.18481" lon="-3.82867">
        <ele>86</ele>
        <time>2020-05-17T15:33:33.610Z</time>
      </trkpt>
      <trkpt lat="48.18487" lon="-3.82866">
        <ele>86</ele>
        <time>2020-05-17T15:33:34.611Z</time>
      </trkpt>
      <trkpt lat="48.18492" lon="-3.82866">
        <ele>86</ele>
        <time>2020-05-17T15:33:35.610Z</time>
      </trkpt>
      <trkpt lat="48.18497" lon="-3.82867">
        <ele>87</ele>
        <time>2020-05-17T15:33:36.611Z</time>
      </trkpt>
      <trkpt lat="48.18502" lon="-3.82867">
        <ele>87</ele>
        <time>2020-05-17T15:33:37.610Z</time>
      </trkpt>
      <trkpt lat="48.18508" lon="-3.82867">
        <ele>88</ele>
        <time>2020-05-17T15:33:38.611Z</time>
      </trkpt>
      <trkpt lat="48.18512" lon="-3.82867">
        <ele>88</ele>
        <time>2020-05-17T15:33:39.611Z</time>
      </trkpt>
      <trkpt lat="48.18516" lon="-3.82868">
        <ele>89</ele>
        <time>2020-05-17T15:33:40.610Z</time>
      </trkpt>
      <trkpt lat="48.1852" lon="-3.82869">
        <ele>89</ele>
        <time>2020-05-17T15:33:41.611Z</time>
      </trkpt>
      <trkpt lat="48.18525" lon="-3.82871">
        <ele>90</ele>
        <time>2020-05-17T15:33:42.611Z</time>
      </trkpt>
      <trkpt lat="48.1853" lon="-3.82873">
        <ele>90</ele>
        <time>2020-05-17T15:33:43.610Z</time>
      </trkpt>
      <trkpt lat="48.18535" lon="-3.82875">
        <ele>90</ele>
        <time>2020-05-17T15:33:44.611Z</time>
      </trkpt>
      <trkpt lat="48.18539" lon="-3.82877">
        <ele>91</ele>
        <time>2020-05-17T15:33:45.611Z</time>
      </trkpt>
      <trkpt lat="48.18542" lon="-3.82879">
        <ele>91</ele>
        <time>2020-05-17T15:33:46.611Z</time>
      </trkpt>
      <trkpt lat="48.18545" lon="-3.82882">
        <ele>92</ele>
        <time>2020-05-17T15:33:47.611Z</time>
      </trkpt>
      <trkpt lat="48.18549" lon="-3.82885">
        <ele>92</ele>
        <time>2020-05-17T15:33:48.611Z</time>
      </trkpt>
      <trkpt lat="48.18553" lon="-3.82888">
        <ele>93</ele>
        <time>2020-05-17T15:33:49.611Z</time>
      </trkpt>
      <trkpt lat="48.1856" lon="-3.82892">
        <ele>93</ele>
        <time>2020-05-17T15:33:50.611Z</time>
      </trkpt>
      <trkpt lat="48.18565" lon="-3.82896">
        <ele>94</ele>
        <time>2020-05-17T15:33:51.611Z</time>
      </trkpt>
      <trkpt lat="48.18569" lon="-3.82901">
        <ele>94</ele>
        <time>2020-05-17T15:33:52.611Z</time>
      </trkpt>
      <trkpt lat="48.18574" lon="-3.82906">
        <ele>95</ele>
        <time>2020-05-17T15:33:53.610Z</time>
      </trkpt>
      <trkpt lat="48.18577" lon="-3.8291">
        <ele>95</ele>
        <time>2020-05-17T15:33:54.611Z</time>
      </trkpt>
      <trkpt lat="48.18581" lon="-3.82914">
        <ele>96</ele>
        <time>2020-05-17T15:33:55.611Z</time>
      </trkpt>
      <trkpt lat="48.18585" lon="-3.82919">
        <ele>96</ele>
        <time>2020-05-17T15:33:56.611Z</time>
      </trkpt>
      <trkpt lat="48.18588" lon="-3.82923">
        <ele>97</ele>
        <time>2020-05-17T15:33:57.610Z</time>
      </trkpt>
      <trkpt lat="48.18592" lon="-3.82927">
        <ele>98</ele>
        <time>2020-05-17T15:33:58.611Z</time>
      </trkpt>
      <trkpt lat="48.18596" lon="-3.82931">
        <ele>98</ele>
        <time>2020-05-17T15:33:59.611Z</time>
      </trkpt>
      <trkpt lat="48.18601" lon="-3.82935">
        <ele>98</ele>
        <time>2020-05-17T15:34:00.611Z</time>
      </trkpt>
      <trkpt lat="48.18603" lon="-3.8294">
        <ele>99</ele>
        <time>2020-05-17T15:34:01.611Z</time>
      </trkpt>
      <trkpt lat="48.18606" lon="-3.82946">
        <ele>99</ele>
        <time>2020-05-17T15:34:02.611Z</time>
      </trkpt>
      <trkpt lat="48.18608" lon="-3.8295">
        <ele>99</ele>
        <time>2020-05-17T15:34:03.611Z</time>
      </trkpt>
      <trkpt lat="48.18612" lon="-3.82954">
        <ele>99</ele>
        <time>2020-05-17T15:34:04.610Z</time>
      </trkpt>
      <trkpt lat="48.18614" lon="-3.82958">
        <ele>100</ele>
        <time>2020-05-17T15:34:05.610Z</time>
      </trkpt>
      <trkpt lat="48.18616" lon="-3.82961">
        <ele>100</ele>
        <time>2020-05-17T15:34:06.611Z</time>
      </trkpt>
      <trkpt lat="48.18619" lon="-3.82965">
        <ele>100</ele>
        <time>2020-05-17T15:34:07.611Z</time>
      </trkpt>
      <trkpt lat="48.18621" lon="-3.82968">
        <ele>100</ele>
        <time>2020-05-17T15:34:08.611Z</time>
      </trkpt>
      <trkpt lat="48.18624" lon="-3.82971">
        <ele>100</ele>
        <time>2020-05-17T15:34:09.611Z</time>
      </trkpt>
      <trkpt lat="48.18627" lon="-3.82974">
        <ele>100</ele>
        <time>2020-05-17T15:34:10.611Z</time>
      </trkpt>
      <trkpt lat="48.18629" lon="-3.82977">
        <ele>100</ele>
        <time>2020-05-17T15:34:11.611Z</time>
      </trkpt>
      <trkpt lat="48.18632" lon="-3.82979">
        <ele>100</ele>
        <time>2020-05-17T15:34:12.611Z</time>
      </trkpt>
      <trkpt lat="48.18634" lon="-3.82981">
        <ele>100</ele>
        <time>2020-05-17T15:34:13.611Z</time>
      </trkpt>
      <trkpt lat="48.18636" lon="-3.82983">
        <ele>100</ele>
        <time>2020-05-17T15:34:14.610Z</time>
      </trkpt>
      <trkpt lat="48.18638" lon="-3.82985">
        <ele>100</ele>
        <time>2020-05-17T15:34:15.611Z</time>
      </trkpt>
      <trkpt lat="48.18639" lon="-3.82987">
        <ele>100</ele>
        <time>2020-05-17T15:34:16.611Z</time>
      </trkpt>
      <trkpt lat="48.18641" lon="-3.8299">
        <ele>100</ele>
        <time>2020-05-17T15:34:17.611Z</time>
      </trkpt>
      <trkpt lat="48.18643" lon="-3.82993">
        <ele>100</ele>
        <time>2020-05-17T15:34:18.610Z</time>
      </trkpt>
      <trkpt lat="48.18645" lon="-3.82997">
        <ele>100</ele>
        <time>2020-05-17T15:34:19.611Z</time>
      </trkpt>
      <trkpt lat="48.18648" lon="-3.83">
        <ele>100</ele>
        <time>2020-05-17T15:34:20.611Z</time>
      </trkpt>
      <trkpt lat="48.18651" lon="-3.83005">
        <ele>100</ele>
        <time>2020-05-17T15:34:21.611Z</time>
      </trkpt>
      <trkpt lat="48.18655" lon="-3.8301">
        <ele>100</ele>
        <time>2020-05-17T15:34:22.611Z</time>
      </trkpt>
      <trkpt lat="48.18659" lon="-3.83014">
        <ele>100</ele>
        <time>2020-05-17T15:34:23.611Z</time>
      </trkpt>
      <trkpt lat="48.18663" lon="-3.83018">
        <ele>100</ele>
        <time>2020-05-17T15:34:24.611Z</time>
      </trkpt>
      <trkpt lat="48.18668" lon="-3.83022">
        <ele>100</ele>
        <time>2020-05-17T15:34:25.611Z</time>
      </trkpt>
      <trkpt lat="48.18674" lon="-3.83026">
        <ele>100</ele>
        <time>2020-05-17T15:34:26.611Z</time>
      </trkpt>
      <trkpt lat="48.1868" lon="-3.83031">
        <ele>100</ele>
        <time>2020-05-17T15:34:27.611Z</time>
      </trkpt>
      <trkpt lat="48.18685" lon="-3.83035">
        <ele>100</ele>
        <time>2020-05-17T15:34:28.611Z</time>
      </trkpt>
      <trkpt lat="48.1869" lon="-3.83039">
        <ele>100</ele>
        <time>2020-05-17T15:34:29.611Z</time>
      </trkpt>
      <trkpt lat="48.18694" lon="-3.83042">
        <ele>100</ele>
        <time>2020-05-17T15:34:30.611Z</time>
      </trkpt>
      <trkpt lat="48.18699" lon="-3.83046">
        <ele>100</ele>
        <time>2020-05-17T15:34:31.611Z</time>
      </trkpt>
      <trkpt lat="48.18704" lon="-3.8305">
        <ele>100</ele>
        <time>2020-05-17T15:34:32.610Z</time>
      </trkpt>
      <trkpt lat="48.18709" lon="-3.83053">
        <ele>100</ele>
        <time>2020-05-17T15:34:33.611Z</time>
      </trkpt>
      <trkpt lat="48.18713" lon="-3.83056">
        <ele>100</ele>
        <time>2020-05-17T15:34:34.611Z</time>
      </trkpt>
      <trkpt lat="48.18717" lon="-3.8306">
        <ele>100</ele>
        <time>2020-05-17T15:34:35.611Z</time>
      </trkpt>
      <trkpt lat="48.18721" lon="-3.83063">
        <ele>100</ele>
        <time>2020-05-17T15:34:36.611Z</time>
      </trkpt>
      <trkpt lat="48.18726" lon="-3.83066">
        <ele>100</ele>
        <time>2020-05-17T15:34:37.611Z</time>
      </trkpt>
      <trkpt lat="48.1873" lon="-3.83069">
        <ele>100</ele>
        <time>2020-05-17T15:34:38.611Z</time>
      </trkpt>
      <trkpt lat="48.18734" lon="-3.83072">
        <ele>100</ele>
        <time>2020-05-17T15:34:39.611Z</time>
      </trkpt>
      <trkpt lat="48.18739" lon="-3.83075">
        <ele>100</ele>
        <time>2020-05-17T15:34:40.611Z</time>
      </trkpt>
      <trkpt lat="48.18744" lon="-3.83078">
        <ele>100</ele>
        <time>2020-05-17T15:34:41.610Z</time>
      </trkpt>
      <trkpt lat="48.18748" lon="-3.8308">
        <ele>100</ele>
        <time>2020-05-17T15:34:42.610Z</time>
      </trkpt>
      <trkpt lat="48.18752" lon="-3.83083">
        <ele>100</ele>
        <time>2020-05-17T15:34:43.611Z</time>
      </trkpt>
      <trkpt lat="48.18757" lon="-3.83086">
        <ele>100</ele>
        <time>2020-05-17T15:34:44.611Z</time>
      </trkpt>
      <trkpt lat="48.18761" lon="-3.83088">
        <ele>100</ele>
        <time>2020-05-17T15:34:45.611Z</time>
      </trkpt>
      <trkpt lat="48.18766" lon="-3.83091">
        <ele>101</ele>
        <time>2020-05-17T15:34:46.611Z</time>
      </trkpt>
      <trkpt lat="48.1877" lon="-3.83093">
        <ele>101</ele>
        <time>2020-05-17T15:34:47.610Z</time>
      </trkpt>
      <trkpt lat="48.18773" lon="-3.83095">
        <ele>101</ele>
        <time>2020-05-17T15:34:48.610Z</time>
      </trkpt>
      <trkpt lat="48.18778" lon="-3.83098">
        <ele>101</ele>
        <time>2020-05-17T15:34:49.611Z</time>
      </trkpt>
      <trkpt lat="48.18782" lon="-3.831">
        <ele>101</ele>
        <time>2020-05-17T15:34:50.610Z</time>
      </trkpt>
      <trkpt lat="48.18786" lon="-3.83103">
        <ele>102</ele>
        <time>2020-05-17T15:34:51.610Z</time>
      </trkpt>
      <trkpt lat="48.1879" lon="-3.83106">
        <ele>102</ele>
        <time>2020-05-17T15:34:52.611Z</time>
      </trkpt>
      <trkpt lat="48.18794" lon="-3.83108">
        <ele>102</ele>
        <time>2020-05-17T15:34:53.611Z</time>
      </trkpt>
      <trkpt lat="48.18797" lon="-3.83111">
        <ele>103</ele>
        <time>2020-05-17T15:34:54.611Z</time>
      </trkpt>
      <trkpt lat="48.18801" lon="-3.83114">
        <ele>103</ele>
        <time>2020-05-17T15:34:55.610Z</time>
      </trkpt>
      <trkpt lat="48.18804" lon="-3.83116">
        <ele>103</ele>
        <time>2020-05-17T15:34:56.611Z</time>
      </trkpt>
      <trkpt lat="48.18808" lon="-3.83118">
        <ele>104</ele>
        <time>2020-05-17T15:34:57.610Z</time>
      </trkpt>
      <trkpt lat="48.18813" lon="-3.83121">
        <ele>104</ele>
        <time>2020-05-17T15:34:58.611Z</time>
      </trkpt>
      <trkpt lat="48.18816" lon="-3.83124">
        <ele>104</ele>
        <time>2020-05-17T15:34:59.611Z</time>
      </trkpt>
      <trkpt lat="48.1882" lon="-3.83127">
        <ele>104</ele>
        <time>2020-05-17T15:35:00.611Z</time>
      </trkpt>
      <trkpt lat="48.18823" lon="-3.8313">
        <ele>104</ele>
        <time>2020-05-17T15:35:01.611Z</time>
      </trkpt>
      <trkpt lat="48.18826" lon="-3.83133">
        <ele>104</ele>
        <time>2020-05-17T15:35:02.611Z</time>
      </trkpt>
      <trkpt lat="48.18829" lon="-3.83135">
        <ele>104</ele>
        <time>2020-05-17T15:35:03.611Z</time>
      </trkpt>
      <trkpt lat="48.18833" lon="-3.83138">
        <ele>104</ele>
        <time>2020-05-17T15:35:04.610Z</time>
      </trkpt>
      <trkpt lat="48.18835" lon="-3.8314">
        <ele>104</ele>
        <time>2020-05-17T15:35:05.610Z</time>
      </trkpt>
      <trkpt lat="48.1884" lon="-3.83142">
        <ele>104</ele>
        <time>2020-05-17T15:35:06.611Z</time>
      </trkpt>
      <trkpt lat="48.18843" lon="-3.83144">
        <ele>105</ele>
        <time>2020-05-17T15:35:07.611Z</time>
      </trkpt>
      <trkpt lat="48.18848" lon="-3.83145">
        <ele>105</ele>
        <time>2020-05-17T15:35:08.611Z</time>
      </trkpt>
      <trkpt lat="48.18853" lon="-3.83146">
        <ele>105</ele>
        <time>2020-05-17T15:35:09.610Z</time>
      </trkpt>
      <trkpt lat="48.18858" lon="-3.83147">
        <ele>105</ele>
        <time>2020-05-17T15:35:10.611Z</time>
      </trkpt>
      <trkpt lat="48.18863" lon="-3.83148">
        <ele>105</ele>
        <time>2020-05-17T15:35:11.610Z</time>
      </trkpt>
      <trkpt lat="48.18868" lon="-3.83148">
        <ele>105</ele>
        <time>2020-05-17T15:35:12.611Z</time>
      </trkpt>
      <trkpt lat="48.18873" lon="-3.83147">
        <ele>105</ele>
        <time>2020-05-17T15:35:13.611Z</time>
      </trkpt>
      <trkpt lat="48.18877" lon="-3.83147">
        <ele>105</ele>
        <time>2020-05-17T15:35:14.610Z</time>
      </trkpt>
      <trkpt lat="48.18881" lon="-3.83146">
        <ele>105</ele>
        <time>2020-05-17T15:35:15.610Z</time>
      </trkpt>
      <trkpt lat="48.18885" lon="-3.83145">
        <ele>105</ele>
        <time>2020-05-17T15:35:16.611Z</time>
      </trkpt>
      <trkpt lat="48.1889" lon="-3.83145">
        <ele>106</ele>
        <time>2020-05-17T15:35:17.610Z</time>
      </trkpt>
      <trkpt lat="48.18894" lon="-3.83144">
        <ele>106</ele>
        <time>2020-05-17T15:35:18.611Z</time>
      </trkpt>
      <trkpt lat="48.18899" lon="-3.83143">
        <ele>106</ele>
        <time>2020-05-17T15:35:19.611Z</time>
      </trkpt>
      <trkpt lat="48.18903" lon="-3.83141">
        <ele>106</ele>
        <time>2020-05-17T15:35:20.611Z</time>
      </trkpt>
      <trkpt lat="48.18907" lon="-3.8314">
        <ele>106</ele>
        <time>2020-05-17T15:35:21.611Z</time>
      </trkpt>
      <trkpt lat="48.18911" lon="-3.83138">
        <ele>106</ele>
        <time>2020-05-17T15:35:22.610Z</time>
      </trkpt>
      <trkpt lat="48.18915" lon="-3.83135">
        <ele>106</ele>
        <time>2020-05-17T15:35:23.611Z</time>
      </trkpt>
      <trkpt lat="48.1892" lon="-3.83133">
        <ele>106</ele>
        <time>2020-05-17T15:35:24.611Z</time>
      </trkpt>
      <trkpt lat="48.18924" lon="-3.8313">
        <ele>106</ele>
        <time>2020-05-17T15:35:25.611Z</time>
      </trkpt>
      <trkpt lat="48.18928" lon="-3.83126">
        <ele>106</ele>
        <time>2020-05-17T15:35:26.611Z</time>
      </trkpt>
      <trkpt lat="48.18932" lon="-3.83123">
        <ele>106</ele>
        <time>2020-05-17T15:35:27.611Z</time>
      </trkpt>
      <trkpt lat="48.18936" lon="-3.83119">
        <ele>107</ele>
        <time>2020-05-17T15:35:28.611Z</time>
      </trkpt>
      <trkpt lat="48.1894" lon="-3.83115">
        <ele>107</ele>
        <time>2020-05-17T15:35:29.611Z</time>
      </trkpt>
      <trkpt lat="48.18943" lon="-3.8311">
        <ele>107</ele>
        <time>2020-05-17T15:35:30.611Z</time>
      </trkpt>
      <trkpt lat="48.18947" lon="-3.83106">
        <ele>107</ele>
        <time>2020-05-17T15:35:31.611Z</time>
      </trkpt>
      <trkpt lat="48.1895" lon="-3.83101">
        <ele>107</ele>
        <time>2020-05-17T15:35:32.610Z</time>
      </trkpt>
      <trkpt lat="48.18954" lon="-3.83096">
        <ele>107</ele>
        <time>2020-05-17T15:35:33.611Z</time>
      </trkpt>
      <trkpt lat="48.18957" lon="-3.8309">
        <ele>107</ele>
        <time>2020-05-17T15:35:34.610Z</time>
      </trkpt>
      <trkpt lat="48.18961" lon="-3.83084">
        <ele>107</ele>
        <time>2020-05-17T15:35:35.611Z</time>
      </trkpt>
      <trkpt lat="48.18964" lon="-3.83078">
        <ele>107</ele>
        <time>2020-05-17T15:35:36.611Z</time>
      </trkpt>
      <trkpt lat="48.18967" lon="-3.83072">
        <ele>107</ele>
        <time>2020-05-17T15:35:37.611Z</time>
      </trkpt>
      <trkpt lat="48.18969" lon="-3.83066">
        <ele>107</ele>
        <time>2020-05-17T15:35:38.611Z</time>
      </trkpt>
      <trkpt lat="48.18972" lon="-3.83059">
        <ele>108</ele>
        <time>2020-05-17T15:35:39.610Z</time>
      </trkpt>
      <trkpt lat="48.18975" lon="-3.83053">
        <ele>108</ele>
        <time>2020-05-17T15:35:40.611Z</time>
      </trkpt>
      <trkpt lat="48.18977" lon="-3.83046">
        <ele>108</ele>
        <time>2020-05-17T15:35:41.611Z</time>
      </trkpt>
      <trkpt lat="48.18979" lon="-3.8304">
        <ele>108</ele>
        <time>2020-05-17T15:35:42.611Z</time>
      </trkpt>
      <trkpt lat="48.18981" lon="-3.83033">
        <ele>108</ele>
        <time>2020-05-17T15:35:43.611Z</time>
      </trkpt>
      <trkpt lat="48.18983" lon="-3.83027">
        <ele>107</ele>
        <time>2020-05-17T15:35:44.611Z</time>
      </trkpt>
      <trkpt lat="48.18984" lon="-3.83021">
        <ele>107</ele>
        <time>2020-05-17T15:35:45.611Z</time>
      </trkpt>
      <trkpt lat="48.18986" lon="-3.83015">
        <ele>107</ele>
        <time>2020-05-17T15:35:46.611Z</time>
      </trkpt>
      <trkpt lat="48.18987" lon="-3.83009">
        <ele>107</ele>
        <time>2020-05-17T15:35:47.611Z</time>
      </trkpt>
      <trkpt lat="48.18988" lon="-3.83004">
        <ele>107</ele>
        <time>2020-05-17T15:35:48.610Z</time>
      </trkpt>
      <trkpt lat="48.18989" lon="-3.83">
        <ele>108</ele>
        <time>2020-05-17T15:35:49.611Z</time>
      </trkpt>
      <trkpt lat="48.1899" lon="-3.82995">
        <ele>108</ele>
        <time>2020-05-17T15:35:50.610Z</time>
      </trkpt>
      <trkpt lat="48.18992" lon="-3.82989">
        <ele>107</ele>
        <time>2020-05-17T15:35:51.610Z</time>
      </trkpt>
      <trkpt lat="48.18994" lon="-3.82981">
        <ele>107</ele>
        <time>2020-05-17T15:35:52.611Z</time>
      </trkpt>
      <trkpt lat="48.18996" lon="-3.82973">
        <ele>107</ele>
        <time>2020-05-17T15:35:53.611Z</time>
      </trkpt>
      <trkpt lat="48.18998" lon="-3.82964">
        <ele>107</ele>
        <time>2020-05-17T15:35:54.610Z</time>
      </trkpt>
      <trkpt lat="48.19" lon="-3.82955">
        <ele>107</ele>
        <time>2020-05-17T15:35:55.610Z</time>
      </trkpt>
      <trkpt lat="48.19002" lon="-3.82946">
        <ele>107</ele>
        <time>2020-05-17T15:35:56.611Z</time>
      </trkpt>
      <trkpt lat="48.19004" lon="-3.82936">
        <ele>107</ele>
        <time>2020-05-17T15:35:57.610Z</time>
      </trkpt>
      <trkpt lat="48.19006" lon="-3.82927">
        <ele>107</ele>
        <time>2020-05-17T15:35:58.611Z</time>
      </trkpt>
      <trkpt lat="48.19008" lon="-3.82918">
        <ele>107</ele>
        <time>2020-05-17T15:35:59.611Z</time>
      </trkpt>
      <trkpt lat="48.1901" lon="-3.82908">
        <ele>107</ele>
        <time>2020-05-17T15:36:00.611Z</time>
      </trkpt>
      <trkpt lat="48.19012" lon="-3.82899">
        <ele>107</ele>
        <time>2020-05-17T15:36:01.611Z</time>
      </trkpt>
      <trkpt lat="48.19014" lon="-3.8289">
        <ele>108</ele>
        <time>2020-05-17T15:36:02.610Z</time>
      </trkpt>
      <trkpt lat="48.19017" lon="-3.82881">
        <ele>108</ele>
        <time>2020-05-17T15:36:03.610Z</time>
      </trkpt>
      <trkpt lat="48.19019" lon="-3.82872">
        <ele>108</ele>
        <time>2020-05-17T15:36:04.611Z</time>
      </trkpt>
      <trkpt lat="48.19021" lon="-3.82863">
        <ele>108</ele>
        <time>2020-05-17T15:36:05.610Z</time>
      </trkpt>
      <trkpt lat="48.19023" lon="-3.82855">
        <ele>108</ele>
        <time>2020-05-17T15:36:06.610Z</time>
      </trkpt>
      <trkpt lat="48.19024" lon="-3.82847">
        <ele>108</ele>
        <time>2020-05-17T15:36:07.610Z</time>
      </trkpt>
      <trkpt lat="48.19027" lon="-3.82837">
        <ele>109</ele>
        <time>2020-05-17T15:36:08.610Z</time>
      </trkpt>
      <trkpt lat="48.19029" lon="-3.82828">
        <ele>109</ele>
        <time>2020-05-17T15:36:09.611Z</time>
      </trkpt>
      <trkpt lat="48.19031" lon="-3.82819">
        <ele>109</ele>
        <time>2020-05-17T15:36:10.611Z</time>
      </trkpt>
      <trkpt lat="48.19033" lon="-3.8281">
        <ele>109</ele>
        <time>2020-05-17T15:36:11.611Z</time>
      </trkpt>
      <trkpt lat="48.19035" lon="-3.82801">
        <ele>109</ele>
        <time>2020-05-17T15:36:12.611Z</time>
      </trkpt>
      <trkpt lat="48.19037" lon="-3.82792">
        <ele>109</ele>
        <time>2020-05-17T15:36:13.611Z</time>
      </trkpt>
      <trkpt lat="48.19039" lon="-3.82784">
        <ele>110</ele>
        <time>2020-05-17T15:36:14.610Z</time>
      </trkpt>
      <trkpt lat="48.19042" lon="-3.82776">
        <ele>110</ele>
        <time>2020-05-17T15:36:15.611Z</time>
      </trkpt>
      <trkpt lat="48.19044" lon="-3.8277">
        <ele>110</ele>
        <time>2020-05-17T15:36:16.610Z</time>
      </trkpt>
      <trkpt lat="48.19047" lon="-3.82762">
        <ele>110</ele>
        <time>2020-05-17T15:36:17.611Z</time>
      </trkpt>
      <trkpt lat="48.1905" lon="-3.82756">
        <ele>110</ele>
        <time>2020-05-17T15:36:18.610Z</time>
      </trkpt>
      <trkpt lat="48.19052" lon="-3.8275">
        <ele>110</ele>
        <time>2020-05-17T15:36:19.611Z</time>
      </trkpt>
      <trkpt lat="48.19054" lon="-3.82744">
        <ele>110</ele>
        <time>2020-05-17T15:36:20.611Z</time>
      </trkpt>
      <trkpt lat="48.19058" lon="-3.82737">
        <ele>109</ele>
        <time>2020-05-17T15:36:21.611Z</time>
      </trkpt>
      <trkpt lat="48.19061" lon="-3.8273">
        <ele>109</ele>
        <time>2020-05-17T15:36:22.611Z</time>
      </trkpt>
      <trkpt lat="48.19065" lon="-3.82723">
        <ele>110</ele>
        <time>2020-05-17T15:36:23.610Z</time>
      </trkpt>
      <trkpt lat="48.1907" lon="-3.82716">
        <ele>110</ele>
        <time>2020-05-17T15:36:24.611Z</time>
      </trkpt>
      <trkpt lat="48.19074" lon="-3.82711">
        <ele>111</ele>
        <time>2020-05-17T15:36:25.611Z</time>
      </trkpt>
      <trkpt lat="48.19079" lon="-3.82703">
        <ele>111</ele>
        <time>2020-05-17T15:36:26.611Z</time>
      </trkpt>
      <trkpt lat="48.19084" lon="-3.82697">
        <ele>111</ele>
        <time>2020-05-17T15:36:27.611Z</time>
      </trkpt>
      <trkpt lat="48.19089" lon="-3.8269">
        <ele>111</ele>
        <time>2020-05-17T15:36:28.610Z</time>
      </trkpt>
      <trkpt lat="48.19093" lon="-3.82685">
        <ele>111</ele>
        <time>2020-05-17T15:36:29.610Z</time>
      </trkpt>
      <trkpt lat="48.19097" lon="-3.82679">
        <ele>111</ele>
        <time>2020-05-17T15:36:30.610Z</time>
      </trkpt>
      <trkpt lat="48.19101" lon="-3.82673">
        <ele>111</ele>
        <time>2020-05-17T15:36:31.610Z</time>
      </trkpt>
      <trkpt lat="48.19105" lon="-3.82668">
        <ele>111</ele>
        <time>2020-05-17T15:36:32.611Z</time>
      </trkpt>
      <trkpt lat="48.19109" lon="-3.82664">
        <ele>111</ele>
        <time>2020-05-17T15:36:33.611Z</time>
      </trkpt>
      <trkpt lat="48.19113" lon="-3.82659">
        <ele>111</ele>
        <time>2020-05-17T15:36:34.611Z</time>
      </trkpt>
      <trkpt lat="48.19117" lon="-3.82653">
        <ele>110</ele>
        <time>2020-05-17T15:36:35.611Z</time>
      </trkpt>
      <trkpt lat="48.19121" lon="-3.82648">
        <ele>110</ele>
        <time>2020-05-17T15:36:36.611Z</time>
      </trkpt>
      <trkpt lat="48.19124" lon="-3.82643">
        <ele>110</ele>
        <time>2020-05-17T15:36:37.611Z</time>
      </trkpt>
      <trkpt lat="48.19127" lon="-3.82639">
        <ele>110</ele>
        <time>2020-05-17T15:36:38.611Z</time>
      </trkpt>
      <trkpt lat="48.19132" lon="-3.82634">
        <ele>110</ele>
        <time>2020-05-17T15:36:39.610Z</time>
      </trkpt>
      <trkpt lat="48.19135" lon="-3.8263">
        <ele>110</ele>
        <time>2020-05-17T15:36:40.610Z</time>
      </trkpt>
      <trkpt lat="48.19139" lon="-3.82625">
        <ele>110</ele>
        <time>2020-05-17T15:36:41.611Z</time>
      </trkpt>
      <trkpt lat="48.19142" lon="-3.8262">
        <ele>110</ele>
        <time>2020-05-17T15:36:42.611Z</time>
      </trkpt>
      <trkpt lat="48.19146" lon="-3.82614">
        <ele>111</ele>
        <time>2020-05-17T15:36:43.611Z</time>
      </trkpt>
      <trkpt lat="48.1915" lon="-3.82609">
        <ele>112</ele>
        <time>2020-05-17T15:36:44.611Z</time>
      </trkpt>
      <trkpt lat="48.19154" lon="-3.82603">
        <ele>112</ele>
        <time>2020-05-17T15:36:45.611Z</time>
      </trkpt>
      <trkpt lat="48.19158" lon="-3.82598">
        <ele>112</ele>
        <time>2020-05-17T15:36:46.611Z</time>
      </trkpt>
      <trkpt lat="48.19162" lon="-3.82592">
        <ele>113</ele>
        <time>2020-05-17T15:36:47.610Z</time>
      </trkpt>
      <trkpt lat="48.19167" lon="-3.82586">
        <ele>113</ele>
        <time>2020-05-17T15:36:48.611Z</time>
      </trkpt>
      <trkpt lat="48.19171" lon="-3.82581">
        <ele>114</ele>
        <time>2020-05-17T15:36:49.611Z</time>
      </trkpt>
      <trkpt lat="48.19175" lon="-3.82575">
        <ele>114</ele>
        <time>2020-05-17T15:36:50.610Z</time>
      </trkpt>
      <trkpt lat="48.19179" lon="-3.8257">
        <ele>114</ele>
        <time>2020-05-17T15:36:51.611Z</time>
      </trkpt>
      <trkpt lat="48.19183" lon="-3.82564">
        <ele>114</ele>
        <time>2020-05-17T15:36:52.611Z</time>
      </trkpt>
      <trkpt lat="48.19187" lon="-3.82558">
        <ele>114</ele>
        <time>2020-05-17T15:36:53.611Z</time>
      </trkpt>
      <trkpt lat="48.19191" lon="-3.82553">
        <ele>115</ele>
        <time>2020-05-17T15:36:54.610Z</time>
      </trkpt>
      <trkpt lat="48.19194" lon="-3.82548">
        <ele>115</ele>
        <time>2020-05-17T15:36:55.610Z</time>
      </trkpt>
      <trkpt lat="48.19198" lon="-3.82542">
        <ele>115</ele>
        <time>2020-05-17T15:36:56.610Z</time>
      </trkpt>
      <trkpt lat="48.19201" lon="-3.82536">
        <ele>115</ele>
        <time>2020-05-17T15:36:57.610Z</time>
      </trkpt>
      <trkpt lat="48.19204" lon="-3.8253">
        <ele>116</ele>
        <time>2020-05-17T15:36:58.611Z</time>
      </trkpt>
      <trkpt lat="48.19207" lon="-3.82523">
        <ele>116</ele>
        <time>2020-05-17T15:36:59.611Z</time>
      </trkpt>
      <trkpt lat="48.1921" lon="-3.82517">
        <ele>116</ele>
        <time>2020-05-17T15:37:00.611Z</time>
      </trkpt>
      <trkpt lat="48.19214" lon="-3.8251">
        <ele>116</ele>
        <time>2020-05-17T15:37:01.610Z</time>
      </trkpt>
      <trkpt lat="48.19217" lon="-3.82503">
        <ele>116</ele>
        <time>2020-05-17T15:37:02.611Z</time>
      </trkpt>
      <trkpt lat="48.19221" lon="-3.82496">
        <ele>117</ele>
        <time>2020-05-17T15:37:03.611Z</time>
      </trkpt>
      <trkpt lat="48.19225" lon="-3.82489">
        <ele>116</ele>
        <time>2020-05-17T15:37:04.611Z</time>
      </trkpt>
      <trkpt lat="48.19228" lon="-3.82483">
        <ele>116</ele>
        <time>2020-05-17T15:37:05.610Z</time>
      </trkpt>
      <trkpt lat="48.19232" lon="-3.82476">
        <ele>116</ele>
        <time>2020-05-17T15:37:06.611Z</time>
      </trkpt>
      <trkpt lat="48.19235" lon="-3.82469">
        <ele>116</ele>
        <time>2020-05-17T15:37:07.611Z</time>
      </trkpt>
      <trkpt lat="48.19238" lon="-3.82463">
        <ele>116</ele>
        <time>2020-05-17T15:37:08.611Z</time>
      </trkpt>
      <trkpt lat="48.19241" lon="-3.82457">
        <ele>116</ele>
        <time>2020-05-17T15:37:09.610Z</time>
      </trkpt>
      <trkpt lat="48.19244" lon="-3.82451">
        <ele>116</ele>
        <time>2020-05-17T15:37:10.611Z</time>
      </trkpt>
      <trkpt lat="48.19247" lon="-3.82444">
        <ele>115</ele>
        <time>2020-05-17T15:37:11.611Z</time>
      </trkpt>
      <trkpt lat="48.1925" lon="-3.82437">
        <ele>115</ele>
        <time>2020-05-17T15:37:12.610Z</time>
      </trkpt>
      <trkpt lat="48.19253" lon="-3.82431">
        <ele>115</ele>
        <time>2020-05-17T15:37:13.611Z</time>
      </trkpt>
      <trkpt lat="48.19257" lon="-3.82424">
        <ele>115</ele>
        <time>2020-05-17T15:37:14.610Z</time>
      </trkpt>
      <trkpt lat="48.1926" lon="-3.82417">
        <ele>114</ele>
        <time>2020-05-17T15:37:15.610Z</time>
      </trkpt>
      <trkpt lat="48.19263" lon="-3.8241">
        <ele>114</ele>
        <time>2020-05-17T15:37:16.611Z</time>
      </trkpt>
      <trkpt lat="48.19265" lon="-3.82404">
        <ele>114</ele>
        <time>2020-05-17T15:37:17.611Z</time>
      </trkpt>
      <trkpt lat="48.19269" lon="-3.82397">
        <ele>114</ele>
        <time>2020-05-17T15:37:18.611Z</time>
      </trkpt>
      <trkpt lat="48.19273" lon="-3.82388">
        <ele>115</ele>
        <time>2020-05-17T15:37:19.611Z</time>
      </trkpt>
      <trkpt lat="48.19277" lon="-3.8238">
        <ele>115</ele>
        <time>2020-05-17T15:37:20.611Z</time>
      </trkpt>
      <trkpt lat="48.1928" lon="-3.82373">
        <ele>115</ele>
        <time>2020-05-17T15:37:21.611Z</time>
      </trkpt>
      <trkpt lat="48.19282" lon="-3.82368">
        <ele>115</ele>
        <time>2020-05-17T15:37:22.611Z</time>
      </trkpt>
      <trkpt lat="48.19284" lon="-3.82361">
        <ele>115</ele>
        <time>2020-05-17T15:37:23.611Z</time>
      </trkpt>
      <trkpt lat="48.19288" lon="-3.82352">
        <ele>115</ele>
        <time>2020-05-17T15:37:24.611Z</time>
      </trkpt>
      <trkpt lat="48.19291" lon="-3.82344">
        <ele>115</ele>
        <time>2020-05-17T15:37:25.611Z</time>
      </trkpt>
      <trkpt lat="48.19293" lon="-3.82336">
        <ele>116</ele>
        <time>2020-05-17T15:37:26.610Z</time>
      </trkpt>
      <trkpt lat="48.19295" lon="-3.8233">
        <ele>116</ele>
        <time>2020-05-17T15:37:27.611Z</time>
      </trkpt>
      <trkpt lat="48.19296" lon="-3.8232">
        <ele>116</ele>
        <time>2020-05-17T15:37:28.611Z</time>
      </trkpt>
      <trkpt lat="48.19297" lon="-3.82311">
        <ele>116</ele>
        <time>2020-05-17T15:37:29.610Z</time>
      </trkpt>
      <trkpt lat="48.19298" lon="-3.82303">
        <ele>117</ele>
        <time>2020-05-17T15:37:30.611Z</time>
      </trkpt>
      <trkpt lat="48.19299" lon="-3.82296">
        <ele>117</ele>
        <time>2020-05-17T15:37:31.611Z</time>
      </trkpt>
      <trkpt lat="48.19299" lon="-3.82288">
        <ele>117</ele>
        <time>2020-05-17T15:37:32.610Z</time>
      </trkpt>
      <trkpt lat="48.19299" lon="-3.8228">
        <ele>118</ele>
        <time>2020-05-17T15:37:33.611Z</time>
      </trkpt>
      <trkpt lat="48.19299" lon="-3.82271">
        <ele>118</ele>
        <time>2020-05-17T15:37:34.611Z</time>
      </trkpt>
      <trkpt lat="48.19299" lon="-3.82263">
        <ele>119</ele>
        <time>2020-05-17T15:37:35.610Z</time>
      </trkpt>
      <trkpt lat="48.19298" lon="-3.82255">
        <ele>119</ele>
        <time>2020-05-17T15:37:36.611Z</time>
      </trkpt>
      <trkpt lat="48.19297" lon="-3.82246">
        <ele>119</ele>
        <time>2020-05-17T15:37:37.610Z</time>
      </trkpt>
      <trkpt lat="48.19296" lon="-3.82238">
        <ele>119</ele>
        <time>2020-05-17T15:37:38.611Z</time>
      </trkpt>
      <trkpt lat="48.19295" lon="-3.8223">
        <ele>119</ele>
        <time>2020-05-17T15:37:39.611Z</time>
      </trkpt>
      <trkpt lat="48.19294" lon="-3.82224">
        <ele>119</ele>
        <time>2020-05-17T15:37:40.611Z</time>
      </trkpt>
      <trkpt lat="48.19291" lon="-3.82215">
        <ele>119</ele>
        <time>2020-05-17T15:37:41.610Z</time>
      </trkpt>
      <trkpt lat="48.19289" lon="-3.82207">
        <ele>120</ele>
        <time>2020-05-17T15:37:42.611Z</time>
      </trkpt>
      <trkpt lat="48.19286" lon="-3.82199">
        <ele>120</ele>
        <time>2020-05-17T15:37:43.610Z</time>
      </trkpt>
      <trkpt lat="48.19283" lon="-3.82192">
        <ele>120</ele>
        <time>2020-05-17T15:37:44.611Z</time>
      </trkpt>
      <trkpt lat="48.1928" lon="-3.82184">
        <ele>121</ele>
        <time>2020-05-17T15:37:45.611Z</time>
      </trkpt>
      <trkpt lat="48.19277" lon="-3.82176">
        <ele>122</ele>
        <time>2020-05-17T15:37:46.611Z</time>
      </trkpt>
      <trkpt lat="48.19273" lon="-3.82169">
        <ele>122</ele>
        <time>2020-05-17T15:37:47.611Z</time>
      </trkpt>
      <trkpt lat="48.19269" lon="-3.82162">
        <ele>123</ele>
        <time>2020-05-17T15:37:48.610Z</time>
      </trkpt>
      <trkpt lat="48.19266" lon="-3.82156">
        <ele>123</ele>
        <time>2020-05-17T15:37:49.611Z</time>
      </trkpt>
      <trkpt lat="48.19262" lon="-3.82149">
        <ele>123</ele>
        <time>2020-05-17T15:37:50.611Z</time>
      </trkpt>
      <trkpt lat="48.19258" lon="-3.82142">
        <ele>123</ele>
        <time>2020-05-17T15:37:51.611Z</time>
      </trkpt>
      <trkpt lat="48.19254" lon="-3.82136">
        <ele>123</ele>
        <time>2020-05-17T15:37:52.611Z</time>
      </trkpt>
      <trkpt lat="48.19251" lon="-3.82128">
        <ele>123</ele>
        <time>2020-05-17T15:37:53.611Z</time>
      </trkpt>
      <trkpt lat="48.19247" lon="-3.82122">
        <ele>123</ele>
        <time>2020-05-17T15:37:54.611Z</time>
      </trkpt>
      <trkpt lat="48.19243" lon="-3.82115">
        <ele>123</ele>
        <time>2020-05-17T15:37:55.611Z</time>
      </trkpt>
      <trkpt lat="48.19239" lon="-3.82108">
        <ele>123</ele>
        <time>2020-05-17T15:37:56.611Z</time>
      </trkpt>
      <trkpt lat="48.19236" lon="-3.82102">
        <ele>123</ele>
        <time>2020-05-17T15:37:57.611Z</time>
      </trkpt>
      <trkpt lat="48.19232" lon="-3.82095">
        <ele>124</ele>
        <time>2020-05-17T15:37:58.611Z</time>
      </trkpt>
      <trkpt lat="48.19229" lon="-3.82089">
        <ele>124</ele>
        <time>2020-05-17T15:37:59.610Z</time>
      </trkpt>
      <trkpt lat="48.19226" lon="-3.82081">
        <ele>124</ele>
        <time>2020-05-17T15:38:00.611Z</time>
      </trkpt>
      <trkpt lat="48.19223" lon="-3.82073">
        <ele>124</ele>
        <time>2020-05-17T15:38:01.611Z</time>
      </trkpt>
      <trkpt lat="48.19221" lon="-3.82065">
        <ele>124</ele>
        <time>2020-05-17T15:38:02.611Z</time>
      </trkpt>
      <trkpt lat="48.19219" lon="-3.82056">
        <ele>125</ele>
        <time>2020-05-17T15:38:03.610Z</time>
      </trkpt>
      <trkpt lat="48.19218" lon="-3.82047">
        <ele>125</ele>
        <time>2020-05-17T15:38:04.610Z</time>
      </trkpt>
      <trkpt lat="48.19217" lon="-3.82037">
        <ele>125</ele>
        <time>2020-05-17T15:38:05.611Z</time>
      </trkpt>
      <trkpt lat="48.19216" lon="-3.82028">
        <ele>125</ele>
        <time>2020-05-17T15:38:06.611Z</time>
      </trkpt>
      <trkpt lat="48.19216" lon="-3.82019">
        <ele>124</ele>
        <time>2020-05-17T15:38:07.610Z</time>
      </trkpt>
      <trkpt lat="48.19216" lon="-3.82011">
        <ele>124</ele>
        <time>2020-05-17T15:38:08.611Z</time>
      </trkpt>
      <trkpt lat="48.19216" lon="-3.82003">
        <ele>124</ele>
        <time>2020-05-17T15:38:09.611Z</time>
      </trkpt>
      <trkpt lat="48.19217" lon="-3.81995">
        <ele>123</ele>
        <time>2020-05-17T15:38:10.611Z</time>
      </trkpt>
      <trkpt lat="48.19218" lon="-3.81987">
        <ele>123</ele>
        <time>2020-05-17T15:38:11.611Z</time>
      </trkpt>
      <trkpt lat="48.1922" lon="-3.81979">
        <ele>123</ele>
        <time>2020-05-17T15:38:12.610Z</time>
      </trkpt>
      <trkpt lat="48.19221" lon="-3.81971">
        <ele>123</ele>
        <time>2020-05-17T15:38:13.610Z</time>
      </trkpt>
      <trkpt lat="48.19223" lon="-3.81965">
        <ele>123</ele>
        <time>2020-05-17T15:38:14.610Z</time>
      </trkpt>
      <trkpt lat="48.19224" lon="-3.8196">
        <ele>124</ele>
        <time>2020-05-17T15:38:15.610Z</time>
      </trkpt>
      <trkpt lat="48.19225" lon="-3.81956">
        <ele>124</ele>
        <time>2020-05-17T15:38:16.610Z</time>
      </trkpt>
      <trkpt lat="48.19226" lon="-3.81952">
        <ele>124</ele>
        <time>2020-05-17T15:38:17.610Z</time>
      </trkpt>
      <trkpt lat="48.19228" lon="-3.81946">
        <ele>124</ele>
        <time>2020-05-17T15:38:18.610Z</time>
      </trkpt>
      <trkpt lat="48.1923" lon="-3.8194">
        <ele>124</ele>
        <time>2020-05-17T15:38:19.610Z</time>
      </trkpt>
      <trkpt lat="48.19232" lon="-3.81935">
        <ele>124</ele>
        <time>2020-05-17T15:38:20.611Z</time>
      </trkpt>
      <trkpt lat="48.19235" lon="-3.8193">
        <ele>125</ele>
        <time>2020-05-17T15:38:21.610Z</time>
      </trkpt>
      <trkpt lat="48.19237" lon="-3.81923">
        <ele>125</ele>
        <time>2020-05-17T15:38:22.611Z</time>
      </trkpt>
      <trkpt lat="48.1924" lon="-3.81916">
        <ele>125</ele>
        <time>2020-05-17T15:38:23.611Z</time>
      </trkpt>
      <trkpt lat="48.19242" lon="-3.8191">
        <ele>125</ele>
        <time>2020-05-17T15:38:24.610Z</time>
      </trkpt>
      <trkpt lat="48.19244" lon="-3.81904">
        <ele>124</ele>
        <time>2020-05-17T15:38:25.611Z</time>
      </trkpt>
      <trkpt lat="48.19247" lon="-3.81896">
        <ele>124</ele>
        <time>2020-05-17T15:38:26.611Z</time>
      </trkpt>
      <trkpt lat="48.19249" lon="-3.81888">
        <ele>125</ele>
        <time>2020-05-17T15:38:27.611Z</time>
      </trkpt>
      <trkpt lat="48.19252" lon="-3.81881">
        <ele>125</ele>
        <time>2020-05-17T15:38:28.610Z</time>
      </trkpt>
      <trkpt lat="48.19254" lon="-3.81874">
        <ele>125</ele>
        <time>2020-05-17T15:38:29.611Z</time>
      </trkpt>
      <trkpt lat="48.19257" lon="-3.81867">
        <ele>125</ele>
        <time>2020-05-17T15:38:30.611Z</time>
      </trkpt>
      <trkpt lat="48.19259" lon="-3.8186">
        <ele>125</ele>
        <time>2020-05-17T15:38:31.611Z</time>
      </trkpt>
      <trkpt lat="48.19261" lon="-3.81853">
        <ele>124</ele>
        <time>2020-05-17T15:38:32.611Z</time>
      </trkpt>
      <trkpt lat="48.19263" lon="-3.81847">
        <ele>124</ele>
        <time>2020-05-17T15:38:33.611Z</time>
      </trkpt>
      <trkpt lat="48.19265" lon="-3.81838">
        <ele>125</ele>
        <time>2020-05-17T15:38:34.611Z</time>
      </trkpt>
      <trkpt lat="48.19268" lon="-3.81831">
        <ele>125</ele>
        <time>2020-05-17T15:38:35.610Z</time>
      </trkpt>
      <trkpt lat="48.19271" lon="-3.81823">
        <ele>125</ele>
        <time>2020-05-17T15:38:36.610Z</time>
      </trkpt>
      <trkpt lat="48.19273" lon="-3.81816">
        <ele>125</ele>
        <time>2020-05-17T15:38:37.610Z</time>
      </trkpt>
      <trkpt lat="48.19276" lon="-3.81808">
        <ele>125</ele>
        <time>2020-05-17T15:38:38.611Z</time>
      </trkpt>
      <trkpt lat="48.19279" lon="-3.81801">
        <ele>125</ele>
        <time>2020-05-17T15:38:39.611Z</time>
      </trkpt>
      <trkpt lat="48.19281" lon="-3.81793">
        <ele>125</ele>
        <time>2020-05-17T15:38:40.611Z</time>
      </trkpt>
      <trkpt lat="48.19282" lon="-3.81786">
        <ele>125</ele>
        <time>2020-05-17T15:38:41.610Z</time>
      </trkpt>
      <trkpt lat="48.19282" lon="-3.81782">
        <ele>125</ele>
        <time>2020-05-17T15:38:42.611Z</time>
      </trkpt>
      <trkpt lat="48.19283" lon="-3.81778">
        <ele>126</ele>
        <time>2020-05-17T15:38:43.611Z</time>
      </trkpt>
      <trkpt lat="48.19285" lon="-3.81776">
        <ele>126</ele>
        <time>2020-05-17T15:38:44.611Z</time>
      </trkpt>
      <trkpt lat="48.19288" lon="-3.81774">
        <ele>126</ele>
        <time>2020-05-17T15:38:45.611Z</time>
      </trkpt>
      <trkpt lat="48.1929" lon="-3.81771">
        <ele>126</ele>
        <time>2020-05-17T15:38:46.610Z</time>
      </trkpt>
      <trkpt lat="48.19292" lon="-3.81768">
        <ele>126</ele>
        <time>2020-05-17T15:38:47.611Z</time>
      </trkpt>
      <trkpt lat="48.19294" lon="-3.81763">
        <ele>126</ele>
        <time>2020-05-17T15:38:48.611Z</time>
      </trkpt>
      <trkpt lat="48.19297" lon="-3.81756">
        <ele>126</ele>
        <time>2020-05-17T15:38:49.610Z</time>
      </trkpt>
      <trkpt lat="48.19298" lon="-3.8175">
        <ele>126</ele>
        <time>2020-05-17T15:38:50.611Z</time>
      </trkpt>
      <trkpt lat="48.193" lon="-3.81745">
        <ele>126</ele>
        <time>2020-05-17T15:38:51.610Z</time>
      </trkpt>
      <trkpt lat="48.19302" lon="-3.81737">
        <ele>126</ele>
        <time>2020-05-17T15:38:52.611Z</time>
      </trkpt>
      <trkpt lat="48.19304" lon="-3.8173">
        <ele>126</ele>
        <time>2020-05-17T15:38:53.611Z</time>
      </trkpt>
      <trkpt lat="48.19307" lon="-3.81724">
        <ele>125</ele>
        <time>2020-05-17T15:38:54.611Z</time>
      </trkpt>
      <trkpt lat="48.19309" lon="-3.81717">
        <ele>125</ele>
        <time>2020-05-17T15:38:55.610Z</time>
      </trkpt>
      <trkpt lat="48.19312" lon="-3.81713">
        <ele>125</ele>
        <time>2020-05-17T15:38:56.610Z</time>
      </trkpt>
      <trkpt lat="48.19315" lon="-3.81707">
        <ele>125</ele>
        <time>2020-05-17T15:38:57.611Z</time>
      </trkpt>
      <trkpt lat="48.1932" lon="-3.81703">
        <ele>125</ele>
        <time>2020-05-17T15:38:58.610Z</time>
      </trkpt>
      <trkpt lat="48.19324" lon="-3.81703">
        <ele>125</ele>
        <time>2020-05-17T15:38:59.611Z</time>
      </trkpt>
      <trkpt lat="48.19328" lon="-3.81704">
        <ele>125</ele>
        <time>2020-05-17T15:39:00.611Z</time>
      </trkpt>
      <trkpt lat="48.19334" lon="-3.81706">
        <ele>125</ele>
        <time>2020-05-17T15:39:01.610Z</time>
      </trkpt>
      <trkpt lat="48.1934" lon="-3.81709">
        <ele>125</ele>
        <time>2020-05-17T15:39:02.611Z</time>
      </trkpt>
      <trkpt lat="48.19345" lon="-3.8171">
        <ele>125</ele>
        <time>2020-05-17T15:39:03.611Z</time>
      </trkpt>
      <trkpt lat="48.19352" lon="-3.81709">
        <ele>125</ele>
        <time>2020-05-17T15:39:04.610Z</time>
      </trkpt>
      <trkpt lat="48.19356" lon="-3.81707">
        <ele>125</ele>
        <time>2020-05-17T15:39:05.611Z</time>
      </trkpt>
      <trkpt lat="48.19362" lon="-3.81703">
        <ele>125</ele>
        <time>2020-05-17T15:39:06.610Z</time>
      </trkpt>
      <trkpt lat="48.19367" lon="-3.81699">
        <ele>124</ele>
        <time>2020-05-17T15:39:07.611Z</time>
      </trkpt>
      <trkpt lat="48.19373" lon="-3.81693">
        <ele>124</ele>
        <time>2020-05-17T15:39:08.611Z</time>
      </trkpt>
      <trkpt lat="48.19376" lon="-3.81689">
        <ele>124</ele>
        <time>2020-05-17T15:39:09.611Z</time>
      </trkpt>
      <trkpt lat="48.19381" lon="-3.81683">
        <ele>124</ele>
        <time>2020-05-17T15:39:10.611Z</time>
      </trkpt>
      <trkpt lat="48.19387" lon="-3.81676">
        <ele>124</ele>
        <time>2020-05-17T15:39:11.611Z</time>
      </trkpt>
      <trkpt lat="48.19392" lon="-3.8167">
        <ele>124</ele>
        <time>2020-05-17T15:39:12.611Z</time>
      </trkpt>
      <trkpt lat="48.19396" lon="-3.81663">
        <ele>124</ele>
        <time>2020-05-17T15:39:13.611Z</time>
      </trkpt>
      <trkpt lat="48.194" lon="-3.81656">
        <ele>124</ele>
        <time>2020-05-17T15:39:14.611Z</time>
      </trkpt>
      <trkpt lat="48.19405" lon="-3.81649">
        <ele>124</ele>
        <time>2020-05-17T15:39:15.610Z</time>
      </trkpt>
      <trkpt lat="48.19409" lon="-3.81643">
        <ele>125</ele>
        <time>2020-05-17T15:39:16.611Z</time>
      </trkpt>
      <trkpt lat="48.19413" lon="-3.81636">
        <ele>125</ele>
        <time>2020-05-17T15:39:17.611Z</time>
      </trkpt>
      <trkpt lat="48.19416" lon="-3.81631">
        <ele>125</ele>
        <time>2020-05-17T15:39:18.611Z</time>
      </trkpt>
      <trkpt lat="48.19421" lon="-3.81625">
        <ele>126</ele>
        <time>2020-05-17T15:39:19.611Z</time>
      </trkpt>
      <trkpt lat="48.19426" lon="-3.81618">
        <ele>126</ele>
        <time>2020-05-17T15:39:20.611Z</time>
      </trkpt>
      <trkpt lat="48.19431" lon="-3.81613">
        <ele>126</ele>
        <time>2020-05-17T15:39:21.611Z</time>
      </trkpt>
      <trkpt lat="48.19434" lon="-3.81608">
        <ele>126</ele>
        <time>2020-05-17T15:39:22.611Z</time>
      </trkpt>
      <trkpt lat="48.19438" lon="-3.81604">
        <ele>126</ele>
        <time>2020-05-17T15:39:23.611Z</time>
      </trkpt>
      <trkpt lat="48.19443" lon="-3.81598">
        <ele>126</ele>
        <time>2020-05-17T15:39:24.611Z</time>
      </trkpt>
      <trkpt lat="48.19446" lon="-3.81593">
        <ele>126</ele>
        <time>2020-05-17T15:39:25.611Z</time>
      </trkpt>
      <trkpt lat="48.19448" lon="-3.81584">
        <ele>126</ele>
        <time>2020-05-17T15:39:26.610Z</time>
      </trkpt>
      <trkpt lat="48.19447" lon="-3.81578">
        <ele>126</ele>
        <time>2020-05-17T15:39:27.611Z</time>
      </trkpt>
      <trkpt lat="48.19445" lon="-3.81571">
        <ele>126</ele>
        <time>2020-05-17T15:39:28.611Z</time>
      </trkpt>
      <trkpt lat="48.19442" lon="-3.81563">
        <ele>126</ele>
        <time>2020-05-17T15:39:29.611Z</time>
      </trkpt>
      <trkpt lat="48.19438" lon="-3.81555">
        <ele>125</ele>
        <time>2020-05-17T15:39:30.610Z</time>
      </trkpt>
      <trkpt lat="48.19435" lon="-3.8155">
        <ele>125</ele>
        <time>2020-05-17T15:39:31.611Z</time>
      </trkpt>
      <trkpt lat="48.1943" lon="-3.81544">
        <ele>124</ele>
        <time>2020-05-17T15:39:32.611Z</time>
      </trkpt>
      <trkpt lat="48.19425" lon="-3.81539">
        <ele>124</ele>
        <time>2020-05-17T15:39:33.611Z</time>
      </trkpt>
      <trkpt lat="48.19419" lon="-3.81533">
        <ele>124</ele>
        <time>2020-05-17T15:39:34.611Z</time>
      </trkpt>
      <trkpt lat="48.19415" lon="-3.81529">
        <ele>123</ele>
        <time>2020-05-17T15:39:35.610Z</time>
      </trkpt>
      <trkpt lat="48.19409" lon="-3.81524">
        <ele>123</ele>
        <time>2020-05-17T15:39:36.610Z</time>
      </trkpt>
      <trkpt lat="48.19404" lon="-3.8152">
        <ele>122</ele>
        <time>2020-05-17T15:39:37.610Z</time>
      </trkpt>
      <trkpt lat="48.19398" lon="-3.81515">
        <ele>122</ele>
        <time>2020-05-17T15:39:38.610Z</time>
      </trkpt>
      <trkpt lat="48.19392" lon="-3.8151">
        <ele>122</ele>
        <time>2020-05-17T15:39:39.611Z</time>
      </trkpt>
      <trkpt lat="48.19385" lon="-3.81503">
        <ele>121</ele>
        <time>2020-05-17T15:39:40.611Z</time>
      </trkpt>
      <trkpt lat="48.1938" lon="-3.81497">
        <ele>121</ele>
        <time>2020-05-17T15:39:41.610Z</time>
      </trkpt>
      <trkpt lat="48.19376" lon="-3.81492">
        <ele>121</ele>
        <time>2020-05-17T15:39:42.611Z</time>
      </trkpt>
      <trkpt lat="48.1937" lon="-3.81484">
        <ele>121</ele>
        <time>2020-05-17T15:39:43.611Z</time>
      </trkpt>
      <trkpt lat="48.19365" lon="-3.81478">
        <ele>121</ele>
        <time>2020-05-17T15:39:44.611Z</time>
      </trkpt>
      <trkpt lat="48.1936" lon="-3.81471">
        <ele>121</ele>
        <time>2020-05-17T15:39:45.611Z</time>
      </trkpt>
      <trkpt lat="48.19357" lon="-3.81466">
        <ele>121</ele>
        <time>2020-05-17T15:39:46.611Z</time>
      </trkpt>
      <trkpt lat="48.19354" lon="-3.81461">
        <ele>121</ele>
        <time>2020-05-17T15:39:47.610Z</time>
      </trkpt>
      <trkpt lat="48.19351" lon="-3.81459">
        <ele>121</ele>
        <time>2020-05-17T15:39:48.611Z</time>
      </trkpt>
      <trkpt lat="48.19348" lon="-3.81457">
        <ele>121</ele>
        <time>2020-05-17T15:39:49.610Z</time>
      </trkpt>
      <trkpt lat="48.19346" lon="-3.81455">
        <ele>121</ele>
        <time>2020-05-17T15:39:50.610Z</time>
      </trkpt>
      <trkpt lat="48.19342" lon="-3.81455">
        <ele>121</ele>
        <time>2020-05-17T15:39:51.611Z</time>
      </trkpt>
      <trkpt lat="48.19339" lon="-3.81454">
        <ele>121</ele>
        <time>2020-05-17T15:39:52.611Z</time>
      </trkpt>
      <trkpt lat="48.19334" lon="-3.81454">
        <ele>121</ele>
        <time>2020-05-17T15:39:53.611Z</time>
      </trkpt>
      <trkpt lat="48.1933" lon="-3.81454">
        <ele>121</ele>
        <time>2020-05-17T15:39:54.611Z</time>
      </trkpt>
      <trkpt lat="48.19325" lon="-3.81454">
        <ele>121</ele>
        <time>2020-05-17T15:39:55.611Z</time>
      </trkpt>
      <trkpt lat="48.1932" lon="-3.81455">
        <ele>122</ele>
        <time>2020-05-17T15:39:56.611Z</time>
      </trkpt>
      <trkpt lat="48.19314" lon="-3.81456">
        <ele>122</ele>
        <time>2020-05-17T15:39:57.611Z</time>
      </trkpt>
      <trkpt lat="48.19309" lon="-3.81457">
        <ele>122</ele>
        <time>2020-05-17T15:39:58.610Z</time>
      </trkpt>
      <trkpt lat="48.19304" lon="-3.81458">
        <ele>122</ele>
        <time>2020-05-17T15:39:59.611Z</time>
      </trkpt>
      <trkpt lat="48.19299" lon="-3.81459">
        <ele>122</ele>
        <time>2020-05-17T15:40:00.611Z</time>
      </trkpt>
      <trkpt lat="48.19292" lon="-3.81459">
        <ele>122</ele>
        <time>2020-05-17T15:40:01.611Z</time>
      </trkpt>
      <trkpt lat="48.19287" lon="-3.81459">
        <ele>122</ele>
        <time>2020-05-17T15:40:02.610Z</time>
      </trkpt>
      <trkpt lat="48.19281" lon="-3.81458">
        <ele>122</ele>
        <time>2020-05-17T15:40:03.611Z</time>
      </trkpt>
      <trkpt lat="48.19276" lon="-3.81458">
        <ele>122</ele>
        <time>2020-05-17T15:40:04.611Z</time>
      </trkpt>
      <trkpt lat="48.1927" lon="-3.81457">
        <ele>122</ele>
        <time>2020-05-17T15:40:05.611Z</time>
      </trkpt>
      <trkpt lat="48.19264" lon="-3.81454">
        <ele>122</ele>
        <time>2020-05-17T15:40:06.611Z</time>
      </trkpt>
      <trkpt lat="48.19259" lon="-3.81453">
        <ele>122</ele>
        <time>2020-05-17T15:40:07.611Z</time>
      </trkpt>
      <trkpt lat="48.19255" lon="-3.81451">
        <ele>122</ele>
        <time>2020-05-17T15:40:08.610Z</time>
      </trkpt>
      <trkpt lat="48.1925" lon="-3.81449">
        <ele>121</ele>
        <time>2020-05-17T15:40:09.611Z</time>
      </trkpt>
      <trkpt lat="48.19244" lon="-3.81446">
        <ele>121</ele>
        <time>2020-05-17T15:40:10.611Z</time>
      </trkpt>
      <trkpt lat="48.19239" lon="-3.81443">
        <ele>121</ele>
        <time>2020-05-17T15:40:11.611Z</time>
      </trkpt>
      <trkpt lat="48.19234" lon="-3.8144">
        <ele>121</ele>
        <time>2020-05-17T15:40:12.611Z</time>
      </trkpt>
      <trkpt lat="48.1923" lon="-3.81437">
        <ele>121</ele>
        <time>2020-05-17T15:40:13.610Z</time>
      </trkpt>
      <trkpt lat="48.19224" lon="-3.81433">
        <ele>121</ele>
        <time>2020-05-17T15:40:14.610Z</time>
      </trkpt>
      <trkpt lat="48.19219" lon="-3.8143">
        <ele>121</ele>
        <time>2020-05-17T15:40:15.611Z</time>
      </trkpt>
      <trkpt lat="48.19214" lon="-3.81429">
        <ele>120</ele>
        <time>2020-05-17T15:40:16.611Z</time>
      </trkpt>
      <trkpt lat="48.19209" lon="-3.81429">
        <ele>120</ele>
        <time>2020-05-17T15:40:17.611Z</time>
      </trkpt>
      <trkpt lat="48.19205" lon="-3.81428">
        <ele>120</ele>
        <time>2020-05-17T15:40:18.611Z</time>
      </trkpt>
      <trkpt lat="48.19199" lon="-3.81427">
        <ele>120</ele>
        <time>2020-05-17T15:40:19.611Z</time>
      </trkpt>
      <trkpt lat="48.19194" lon="-3.81426">
        <ele>120</ele>
        <time>2020-05-17T15:40:20.611Z</time>
      </trkpt>
      <trkpt lat="48.19188" lon="-3.81426">
        <ele>120</ele>
        <time>2020-05-17T15:40:21.611Z</time>
      </trkpt>
      <trkpt lat="48.19183" lon="-3.81425">
        <ele>120</ele>
        <time>2020-05-17T15:40:22.611Z</time>
      </trkpt>
      <trkpt lat="48.19179" lon="-3.81425">
        <ele>120</ele>
        <time>2020-05-17T15:40:23.611Z</time>
      </trkpt>
      <trkpt lat="48.19173" lon="-3.81425">
        <ele>120</ele>
        <time>2020-05-17T15:40:24.610Z</time>
      </trkpt>
      <trkpt lat="48.19168" lon="-3.81425">
        <ele>120</ele>
        <time>2020-05-17T15:40:25.611Z</time>
      </trkpt>
      <trkpt lat="48.19163" lon="-3.81425">
        <ele>120</ele>
        <time>2020-05-17T15:40:26.611Z</time>
      </trkpt>
      <trkpt lat="48.19158" lon="-3.81426">
        <ele>120</ele>
        <time>2020-05-17T15:40:27.611Z</time>
      </trkpt>
      <trkpt lat="48.19152" lon="-3.81427">
        <ele>119</ele>
        <time>2020-05-17T15:40:28.611Z</time>
      </trkpt>
      <trkpt lat="48.19147" lon="-3.81427">
        <ele>120</ele>
        <time>2020-05-17T15:40:29.611Z</time>
      </trkpt>
      <trkpt lat="48.19142" lon="-3.81428">
        <ele>120</ele>
        <time>2020-05-17T15:40:30.611Z</time>
      </trkpt>
      <trkpt lat="48.19139" lon="-3.81429">
        <ele>120</ele>
        <time>2020-05-17T15:40:31.611Z</time>
      </trkpt>
      <trkpt lat="48.19135" lon="-3.81429">
        <ele>120</ele>
        <time>2020-05-17T15:40:32.611Z</time>
      </trkpt>
      <trkpt lat="48.19132" lon="-3.81428">
        <ele>121</ele>
        <time>2020-05-17T15:40:33.611Z</time>
      </trkpt>
      <trkpt lat="48.19131" lon="-3.81427">
        <ele>121</ele>
        <time>2020-05-17T15:40:34.610Z</time>
      </trkpt>
      <trkpt lat="48.19131" lon="-3.81425">
        <ele>121</ele>
        <time>2020-05-17T15:40:35.611Z</time>
      </trkpt>
      <trkpt lat="48.19131" lon="-3.81424">
        <ele>121</ele>
        <time>2020-05-17T15:40:36.611Z</time>
      </trkpt>
      <trkpt lat="48.19132" lon="-3.81421">
        <ele>121</ele>
        <time>2020-05-17T15:40:37.611Z</time>
      </trkpt>
      <trkpt lat="48.19133" lon="-3.81418">
        <ele>121</ele>
        <time>2020-05-17T15:40:38.611Z</time>
      </trkpt>
      <trkpt lat="48.19134" lon="-3.81416">
        <ele>121</ele>
        <time>2020-05-17T15:40:39.610Z</time>
      </trkpt>
      <trkpt lat="48.19135" lon="-3.81415">
        <ele>121</ele>
        <time>2020-05-17T15:40:40.610Z</time>
      </trkpt>
      <trkpt lat="48.19136" lon="-3.81413">
        <ele>121</ele>
        <time>2020-05-17T15:40:41.610Z</time>
      </trkpt>
      <trkpt lat="48.19138" lon="-3.81411">
        <ele>121</ele>
        <time>2020-05-17T15:40:42.611Z</time>
      </trkpt>
      <trkpt lat="48.1914" lon="-3.81408">
        <ele>121</ele>
        <time>2020-05-17T15:40:43.611Z</time>
      </trkpt>
      <trkpt lat="48.19142" lon="-3.81406">
        <ele>121</ele>
        <time>2020-05-17T15:40:44.611Z</time>
      </trkpt>
      <trkpt lat="48.19144" lon="-3.81403">
        <ele>121</ele>
        <time>2020-05-17T15:40:45.610Z</time>
      </trkpt>
      <trkpt lat="48.19145" lon="-3.814">
        <ele>121</ele>
        <time>2020-05-17T15:40:46.611Z</time>
      </trkpt>
      <trkpt lat="48.19146" lon="-3.81397">
        <ele>121</ele>
        <time>2020-05-17T15:40:47.611Z</time>
      </trkpt>
      <trkpt lat="48.19147" lon="-3.81392">
        <ele>121</ele>
        <time>2020-05-17T15:40:48.611Z</time>
      </trkpt>
      <trkpt lat="48.19148" lon="-3.81387">
        <ele>121</ele>
        <time>2020-05-17T15:40:49.611Z</time>
      </trkpt>
      <trkpt lat="48.19149" lon="-3.81383">
        <ele>121</ele>
        <time>2020-05-17T15:40:50.611Z</time>
      </trkpt>
      <trkpt lat="48.19149" lon="-3.81377">
        <ele>121</ele>
        <time>2020-05-17T15:40:51.611Z</time>
      </trkpt>
      <trkpt lat="48.1915" lon="-3.81372">
        <ele>121</ele>
        <time>2020-05-17T15:40:52.611Z</time>
      </trkpt>
      <trkpt lat="48.1915" lon="-3.81367">
        <ele>121</ele>
        <time>2020-05-17T15:40:53.611Z</time>
      </trkpt>
      <trkpt lat="48.1915" lon="-3.81361">
        <ele>121</ele>
        <time>2020-05-17T15:40:54.611Z</time>
      </trkpt>
      <trkpt lat="48.19151" lon="-3.81353">
        <ele>121</ele>
        <time>2020-05-17T15:40:55.611Z</time>
      </trkpt>
      <trkpt lat="48.19151" lon="-3.81346">
        <ele>121</ele>
        <time>2020-05-17T15:40:56.611Z</time>
      </trkpt>
      <trkpt lat="48.19152" lon="-3.8134">
        <ele>122</ele>
        <time>2020-05-17T15:40:57.610Z</time>
      </trkpt>
      <trkpt lat="48.19152" lon="-3.81333">
        <ele>122</ele>
        <time>2020-05-17T15:40:58.611Z</time>
      </trkpt>
      <trkpt lat="48.19152" lon="-3.81328">
        <ele>122</ele>
        <time>2020-05-17T15:40:59.610Z</time>
      </trkpt>
      <trkpt lat="48.19152" lon="-3.81321">
        <ele>121</ele>
        <time>2020-05-17T15:41:00.611Z</time>
      </trkpt>
      <trkpt lat="48.19153" lon="-3.81313">
        <ele>121</ele>
        <time>2020-05-17T15:41:01.611Z</time>
      </trkpt>
      <trkpt lat="48.19154" lon="-3.81306">
        <ele>121</ele>
        <time>2020-05-17T15:41:02.610Z</time>
      </trkpt>
      <trkpt lat="48.19154" lon="-3.81299">
        <ele>121</ele>
        <time>2020-05-17T15:41:03.610Z</time>
      </trkpt>
      <trkpt lat="48.19155" lon="-3.81293">
        <ele>121</ele>
        <time>2020-05-17T15:41:04.610Z</time>
      </trkpt>
      <trkpt lat="48.19155" lon="-3.81286">
        <ele>120</ele>
        <time>2020-05-17T15:41:05.611Z</time>
      </trkpt>
      <trkpt lat="48.19155" lon="-3.81279">
        <ele>120</ele>
        <time>2020-05-17T15:41:06.610Z</time>
      </trkpt>
      <trkpt lat="48.19155" lon="-3.81273">
        <ele>120</ele>
        <time>2020-05-17T15:41:07.611Z</time>
      </trkpt>
      <trkpt lat="48.19155" lon="-3.81267">
        <ele>120</ele>
        <time>2020-05-17T15:41:08.610Z</time>
      </trkpt>
      <trkpt lat="48.19155" lon="-3.81262">
        <ele>120</ele>
        <time>2020-05-17T15:41:09.610Z</time>
      </trkpt>
      <trkpt lat="48.19155" lon="-3.81255">
        <ele>120</ele>
        <time>2020-05-17T15:41:10.611Z</time>
      </trkpt>
      <trkpt lat="48.19155" lon="-3.81249">
        <ele>121</ele>
        <time>2020-05-17T15:41:11.611Z</time>
      </trkpt>
      <trkpt lat="48.19156" lon="-3.81245">
        <ele>121</ele>
        <time>2020-05-17T15:41:12.611Z</time>
      </trkpt>
      <trkpt lat="48.19156" lon="-3.81239">
        <ele>121</ele>
        <time>2020-05-17T15:41:13.611Z</time>
      </trkpt>
      <trkpt lat="48.19156" lon="-3.81232">
        <ele>121</ele>
        <time>2020-05-17T15:41:14.610Z</time>
      </trkpt>
      <trkpt lat="48.19156" lon="-3.81227">
        <ele>122</ele>
        <time>2020-05-17T15:41:15.611Z</time>
      </trkpt>
      <trkpt lat="48.19157" lon="-3.81222">
        <ele>122</ele>
        <time>2020-05-17T15:41:16.611Z</time>
      </trkpt>
      <trkpt lat="48.19157" lon="-3.81217">
        <ele>122</ele>
        <time>2020-05-17T15:41:17.611Z</time>
      </trkpt>
      <trkpt lat="48.19157" lon="-3.81217">
        <ele>122</ele>
        <time>2020-05-17T15:41:18.611Z</time>
      </trkpt>
      <trkpt lat="48.19154" lon="-3.8121">
        <ele>122</ele>
        <time>2020-05-17T15:41:19.611Z</time>
      </trkpt>
      <trkpt lat="48.19152" lon="-3.81206">
        <ele>122</ele>
        <time>2020-05-17T15:41:20.610Z</time>
      </trkpt>
      <trkpt lat="48.1915" lon="-3.81204">
        <ele>122</ele>
        <time>2020-05-17T15:41:21.611Z</time>
      </trkpt>
      <trkpt lat="48.19147" lon="-3.81201">
        <ele>122</ele>
        <time>2020-05-17T15:41:22.610Z</time>
      </trkpt>
      <trkpt lat="48.19146" lon="-3.81197">
        <ele>122</ele>
        <time>2020-05-17T15:41:23.611Z</time>
      </trkpt>
      <trkpt lat="48.19145" lon="-3.81192">
        <ele>123</ele>
        <time>2020-05-17T15:41:24.611Z</time>
      </trkpt>
      <trkpt lat="48.19146" lon="-3.8119">
        <ele>123</ele>
        <time>2020-05-17T15:41:25.611Z</time>
      </trkpt>
      <trkpt lat="48.19147" lon="-3.81188">
        <ele>123</ele>
        <time>2020-05-17T15:41:26.610Z</time>
      </trkpt>
      <trkpt lat="48.19148" lon="-3.81188">
        <ele>124</ele>
        <time>2020-05-17T15:41:27.610Z</time>
      </trkpt>
      <trkpt lat="48.19149" lon="-3.81187">
        <ele>124</ele>
        <time>2020-05-17T15:41:28.611Z</time>
      </trkpt>
      <trkpt lat="48.19151" lon="-3.81186">
        <ele>125</ele>
        <time>2020-05-17T15:41:29.611Z</time>
      </trkpt>
      <trkpt lat="48.19153" lon="-3.81185">
        <ele>125</ele>
        <time>2020-05-17T15:41:30.611Z</time>
      </trkpt>
      <trkpt lat="48.19156" lon="-3.81183">
        <ele>125</ele>
        <time>2020-05-17T15:41:31.611Z</time>
      </trkpt>
      <trkpt lat="48.19158" lon="-3.81182">
        <ele>125</ele>
        <time>2020-05-17T15:41:32.611Z</time>
      </trkpt>
      <trkpt lat="48.1916" lon="-3.8118">
        <ele>125</ele>
        <time>2020-05-17T15:41:33.611Z</time>
      </trkpt>
      <trkpt lat="48.19163" lon="-3.81179">
        <ele>125</ele>
        <time>2020-05-17T15:41:34.610Z</time>
      </trkpt>
      <trkpt lat="48.19165" lon="-3.81178">
        <ele>125</ele>
        <time>2020-05-17T15:41:35.611Z</time>
      </trkpt>
      <trkpt lat="48.19168" lon="-3.81177">
        <ele>125</ele>
        <time>2020-05-17T15:41:36.611Z</time>
      </trkpt>
      <trkpt lat="48.19171" lon="-3.81176">
        <ele>125</ele>
        <time>2020-05-17T15:41:37.611Z</time>
      </trkpt>
      <trkpt lat="48.19174" lon="-3.81175">
        <ele>125</ele>
        <time>2020-05-17T15:41:38.610Z</time>
      </trkpt>
      <trkpt lat="48.19177" lon="-3.81175">
        <ele>125</ele>
        <time>2020-05-17T15:41:39.610Z</time>
      </trkpt>
      <trkpt lat="48.1918" lon="-3.81174">
        <ele>125</ele>
        <time>2020-05-17T15:41:40.611Z</time>
      </trkpt>
      <trkpt lat="48.19184" lon="-3.81175">
        <ele>125</ele>
        <time>2020-05-17T15:41:41.611Z</time>
      </trkpt>
      <trkpt lat="48.19188" lon="-3.81174">
        <ele>125</ele>
        <time>2020-05-17T15:41:42.610Z</time>
      </trkpt>
      <trkpt lat="48.19191" lon="-3.81174">
        <ele>125</ele>
        <time>2020-05-17T15:41:43.611Z</time>
      </trkpt>
      <trkpt lat="48.19193" lon="-3.81174">
        <ele>125</ele>
        <time>2020-05-17T15:41:44.610Z</time>
      </trkpt>
      <trkpt lat="48.19196" lon="-3.81173">
        <ele>125</ele>
        <time>2020-05-17T15:41:45.610Z</time>
      </trkpt>
      <trkpt lat="48.19199" lon="-3.81173">
        <ele>126</ele>
        <time>2020-05-17T15:41:46.611Z</time>
      </trkpt>
      <trkpt lat="48.19202" lon="-3.81173">
        <ele>126</ele>
        <time>2020-05-17T15:41:47.611Z</time>
      </trkpt>
      <trkpt lat="48.19204" lon="-3.81173">
        <ele>127</ele>
        <time>2020-05-17T15:41:48.611Z</time>
      </trkpt>
      <trkpt lat="48.19206" lon="-3.81173">
        <ele>127</ele>
        <time>2020-05-17T15:41:49.611Z</time>
      </trkpt>
      <trkpt lat="48.19208" lon="-3.81174">
        <ele>127</ele>
        <time>2020-05-17T15:41:50.611Z</time>
      </trkpt>
      <trkpt lat="48.19211" lon="-3.81175">
        <ele>127</ele>
        <time>2020-05-17T15:41:51.611Z</time>
      </trkpt>
      <trkpt lat="48.19213" lon="-3.81175">
        <ele>128</ele>
        <time>2020-05-17T15:41:52.610Z</time>
      </trkpt>
      <trkpt lat="48.19215" lon="-3.81176">
        <ele>128</ele>
        <time>2020-05-17T15:41:53.611Z</time>
      </trkpt>
      <trkpt lat="48.19217" lon="-3.81176">
        <ele>128</ele>
        <time>2020-05-17T15:41:54.611Z</time>
      </trkpt>
      <trkpt lat="48.19221" lon="-3.81177">
        <ele>128</ele>
        <time>2020-05-17T15:41:55.610Z</time>
      </trkpt>
      <trkpt lat="48.19223" lon="-3.81178">
        <ele>128</ele>
        <time>2020-05-17T15:41:56.611Z</time>
      </trkpt>
      <trkpt lat="48.19225" lon="-3.81179">
        <ele>128</ele>
        <time>2020-05-17T15:41:57.610Z</time>
      </trkpt>
      <trkpt lat="48.19227" lon="-3.81181">
        <ele>128</ele>
        <time>2020-05-17T15:41:58.611Z</time>
      </trkpt>
      <trkpt lat="48.19229" lon="-3.81183">
        <ele>128</ele>
        <time>2020-05-17T15:41:59.611Z</time>
      </trkpt>
      <trkpt lat="48.19231" lon="-3.81185">
        <ele>128</ele>
        <time>2020-05-17T15:42:00.611Z</time>
      </trkpt>
      <trkpt lat="48.19232" lon="-3.81188">
        <ele>127</ele>
        <time>2020-05-17T15:42:01.611Z</time>
      </trkpt>
      <trkpt lat="48.19232" lon="-3.81191">
        <ele>126</ele>
        <time>2020-05-17T15:42:02.611Z</time>
      </trkpt>
      <trkpt lat="48.19233" lon="-3.81193">
        <ele>126</ele>
        <time>2020-05-17T15:42:03.611Z</time>
      </trkpt>
      <trkpt lat="48.19233" lon="-3.81195">
        <ele>125</ele>
        <time>2020-05-17T15:42:04.611Z</time>
      </trkpt>
      <trkpt lat="48.19233" lon="-3.81197">
        <ele>125</ele>
        <time>2020-05-17T15:42:05.611Z</time>
      </trkpt>
      <trkpt lat="48.19233" lon="-3.81197">
        <ele>124</ele>
        <time>2020-05-17T15:42:06.611Z</time>
      </trkpt>
      <trkpt lat="48.19233" lon="-3.81198">
        <ele>123</ele>
        <time>2020-05-17T15:42:07.611Z</time>
      </trkpt>
      <trkpt lat="48.19231" lon="-3.81198">
        <ele>123</ele>
        <time>2020-05-17T15:42:08.611Z</time>
      </trkpt>
      <trkpt lat="48.19229" lon="-3.812">
        <ele>123</ele>
        <time>2020-05-17T15:42:09.611Z</time>
      </trkpt>
      <trkpt lat="48.19227" lon="-3.81201">
        <ele>123</ele>
        <time>2020-05-17T15:42:10.611Z</time>
      </trkpt>
      <trkpt lat="48.19226" lon="-3.81204">
        <ele>123</ele>
        <time>2020-05-17T15:42:11.610Z</time>
      </trkpt>
      <trkpt lat="48.19224" lon="-3.81207">
        <ele>123</ele>
        <time>2020-05-17T15:42:12.611Z</time>
      </trkpt>
      <trkpt lat="48.19223" lon="-3.81212">
        <ele>123</ele>
        <time>2020-05-17T15:42:13.611Z</time>
      </trkpt>
      <trkpt lat="48.19222" lon="-3.81216">
        <ele>122</ele>
        <time>2020-05-17T15:42:14.610Z</time>
      </trkpt>
      <trkpt lat="48.19222" lon="-3.81221">
        <ele>122</ele>
        <time>2020-05-17T15:42:15.611Z</time>
      </trkpt>
      <trkpt lat="48.19221" lon="-3.81225">
        <ele>122</ele>
        <time>2020-05-17T15:42:16.611Z</time>
      </trkpt>
      <trkpt lat="48.1922" lon="-3.81229">
        <ele>122</ele>
        <time>2020-05-17T15:42:17.611Z</time>
      </trkpt>
      <trkpt lat="48.1922" lon="-3.81232">
        <ele>122</ele>
        <time>2020-05-17T15:42:18.611Z</time>
      </trkpt>
      <trkpt lat="48.1922" lon="-3.81235">
        <ele>122</ele>
        <time>2020-05-17T15:42:19.611Z</time>
      </trkpt>
      <trkpt lat="48.19221" lon="-3.81236">
        <ele>122</ele>
        <time>2020-05-17T15:42:20.611Z</time>
      </trkpt>
      <trkpt lat="48.19222" lon="-3.81237">
        <ele>122</ele>
        <time>2020-05-17T15:42:21.611Z</time>
      </trkpt>
      <trkpt lat="48.19223" lon="-3.81238">
        <ele>121</ele>
        <time>2020-05-17T15:42:22.611Z</time>
      </trkpt>
      <trkpt lat="48.19224" lon="-3.81238">
        <ele>121</ele>
        <time>2020-05-17T15:42:23.610Z</time>
      </trkpt>
      <trkpt lat="48.19226" lon="-3.81238">
        <ele>121</ele>
        <time>2020-05-17T15:42:24.611Z</time>
      </trkpt>
      <trkpt lat="48.19227" lon="-3.81238">
        <ele>122</ele>
        <time>2020-05-17T15:42:25.611Z</time>
      </trkpt>
      <trkpt lat="48.19229" lon="-3.81238">
        <ele>122</ele>
        <time>2020-05-17T15:42:26.611Z</time>
      </trkpt>
      <trkpt lat="48.1923" lon="-3.81238">
        <ele>122</ele>
        <time>2020-05-17T15:42:27.610Z</time>
      </trkpt>
      <trkpt lat="48.19231" lon="-3.81238">
        <ele>122</ele>
        <time>2020-05-17T15:42:28.610Z</time>
      </trkpt>
      <trkpt lat="48.19233" lon="-3.81238">
        <ele>122</ele>
        <time>2020-05-17T15:42:29.611Z</time>
      </trkpt>
      <trkpt lat="48.19234" lon="-3.81238">
        <ele>122</ele>
        <time>2020-05-17T15:42:30.611Z</time>
      </trkpt>
      <trkpt lat="48.19235" lon="-3.81237">
        <ele>122</ele>
        <time>2020-05-17T15:42:31.610Z</time>
      </trkpt>
      <trkpt lat="48.19236" lon="-3.81236">
        <ele>122</ele>
        <time>2020-05-17T15:42:32.611Z</time>
      </trkpt>
      <trkpt lat="48.19237" lon="-3.81235">
        <ele>122</ele>
        <time>2020-05-17T15:42:33.610Z</time>
      </trkpt>
      <trkpt lat="48.19238" lon="-3.81234">
        <ele>122</ele>
        <time>2020-05-17T15:42:34.611Z</time>
      </trkpt>
      <trkpt lat="48.19238" lon="-3.81233">
        <ele>122</ele>
        <time>2020-05-17T15:42:35.611Z</time>
      </trkpt>
      <trkpt lat="48.19238" lon="-3.8123">
        <ele>122</ele>
        <time>2020-05-17T15:42:36.611Z</time>
      </trkpt>
      <trkpt lat="48.19238" lon="-3.81228">
        <ele>122</ele>
        <time>2020-05-17T15:42:37.610Z</time>
      </trkpt>
      <trkpt lat="48.19238" lon="-3.81226">
        <ele>122</ele>
        <time>2020-05-17T15:42:38.610Z</time>
      </trkpt>
      <trkpt lat="48.19239" lon="-3.81223">
        <ele>122</ele>
        <time>2020-05-17T15:42:39.610Z</time>
      </trkpt>
      <trkpt lat="48.19239" lon="-3.8122">
        <ele>122</ele>
        <time>2020-05-17T15:42:40.610Z</time>
      </trkpt>
      <trkpt lat="48.1924" lon="-3.81217">
        <ele>121</ele>
        <time>2020-05-17T15:42:41.611Z</time>
      </trkpt>
      <trkpt lat="48.1924" lon="-3.81215">
        <ele>121</ele>
        <time>2020-05-17T15:42:42.610Z</time>
      </trkpt>
      <trkpt lat="48.19241" lon="-3.81213">
        <ele>121</ele>
        <time>2020-05-17T15:42:43.610Z</time>
      </trkpt>
      <trkpt lat="48.19243" lon="-3.81213">
        <ele>121</ele>
        <time>2020-05-17T15:42:44.611Z</time>
      </trkpt>
      <trkpt lat="48.19245" lon="-3.81212">
        <ele>121</ele>
        <time>2020-05-17T15:42:45.611Z</time>
      </trkpt>
      <trkpt lat="48.19248" lon="-3.81213">
        <ele>121</ele>
        <time>2020-05-17T15:42:46.610Z</time>
      </trkpt>
      <trkpt lat="48.1925" lon="-3.81213">
        <ele>121</ele>
        <time>2020-05-17T15:42:47.610Z</time>
      </trkpt>
      <trkpt lat="48.19253" lon="-3.81214">
        <ele>121</ele>
        <time>2020-05-17T15:42:48.610Z</time>
      </trkpt>
      <trkpt lat="48.19255" lon="-3.81215">
        <ele>121</ele>
        <time>2020-05-17T15:42:49.610Z</time>
      </trkpt>
      <trkpt lat="48.19258" lon="-3.81216">
        <ele>120</ele>
        <time>2020-05-17T15:42:50.610Z</time>
      </trkpt>
      <trkpt lat="48.19259" lon="-3.81218">
        <ele>119</ele>
        <time>2020-05-17T15:42:51.610Z</time>
      </trkpt>
      <trkpt lat="48.1926" lon="-3.81219">
        <ele>118</ele>
        <time>2020-05-17T15:42:52.611Z</time>
      </trkpt>
      <trkpt lat="48.19261" lon="-3.81223">
        <ele>117</ele>
        <time>2020-05-17T15:42:53.611Z</time>
      </trkpt>
      <trkpt lat="48.1926" lon="-3.81227">
        <ele>117</ele>
        <time>2020-05-17T15:42:54.611Z</time>
      </trkpt>
      <trkpt lat="48.19259" lon="-3.81231">
        <ele>116</ele>
        <time>2020-05-17T15:42:55.611Z</time>
      </trkpt>
      <trkpt lat="48.19259" lon="-3.81234">
        <ele>116</ele>
        <time>2020-05-17T15:42:56.611Z</time>
      </trkpt>
      <trkpt lat="48.19257" lon="-3.81238">
        <ele>116</ele>
        <time>2020-05-17T15:42:57.611Z</time>
      </trkpt>
      <trkpt lat="48.19256" lon="-3.81241">
        <ele>116</ele>
        <time>2020-05-17T15:42:58.611Z</time>
      </trkpt>
      <trkpt lat="48.19256" lon="-3.81244">
        <ele>116</ele>
        <time>2020-05-17T15:42:59.611Z</time>
      </trkpt>
      <trkpt lat="48.19256" lon="-3.81247">
        <ele>116</ele>
        <time>2020-05-17T15:43:00.611Z</time>
      </trkpt>
      <trkpt lat="48.19256" lon="-3.81248">
        <ele>116</ele>
        <time>2020-05-17T15:43:01.611Z</time>
      </trkpt>
      <trkpt lat="48.19257" lon="-3.81251">
        <ele>116</ele>
        <time>2020-05-17T15:43:02.611Z</time>
      </trkpt>
      <trkpt lat="48.19257" lon="-3.81254">
        <ele>115</ele>
        <time>2020-05-17T15:43:03.611Z</time>
      </trkpt>
      <trkpt lat="48.19258" lon="-3.81258">
        <ele>114</ele>
        <time>2020-05-17T15:43:04.610Z</time>
      </trkpt>
      <trkpt lat="48.19258" lon="-3.81262">
        <ele>114</ele>
        <time>2020-05-17T15:43:05.611Z</time>
      </trkpt>
      <trkpt lat="48.19258" lon="-3.81264">
        <ele>113</ele>
        <time>2020-05-17T15:43:06.610Z</time>
      </trkpt>
      <trkpt lat="48.19258" lon="-3.81268">
        <ele>112</ele>
        <time>2020-05-17T15:43:07.611Z</time>
      </trkpt>
      <trkpt lat="48.19258" lon="-3.81273">
        <ele>112</ele>
        <time>2020-05-17T15:43:08.610Z</time>
      </trkpt>
      <trkpt lat="48.19258" lon="-3.81276">
        <ele>111</ele>
        <time>2020-05-17T15:43:09.610Z</time>
      </trkpt>
      <trkpt lat="48.19257" lon="-3.81281">
        <ele>111</ele>
        <time>2020-05-17T15:43:10.610Z</time>
      </trkpt>
      <trkpt lat="48.19256" lon="-3.81284">
        <ele>111</ele>
        <time>2020-05-17T15:43:11.611Z</time>
      </trkpt>
      <trkpt lat="48.19255" lon="-3.81288">
        <ele>111</ele>
        <time>2020-05-17T15:43:12.610Z</time>
      </trkpt>
      <trkpt lat="48.19254" lon="-3.81291">
        <ele>111</ele>
        <time>2020-05-17T15:43:13.610Z</time>
      </trkpt>
      <trkpt lat="48.19253" lon="-3.81294">
        <ele>111</ele>
        <time>2020-05-17T15:43:14.611Z</time>
      </trkpt>
      <trkpt lat="48.19252" lon="-3.81298">
        <ele>112</ele>
        <time>2020-05-17T15:43:15.611Z</time>
      </trkpt>
      <trkpt lat="48.19251" lon="-3.81301">
        <ele>112</ele>
        <time>2020-05-17T15:43:16.610Z</time>
      </trkpt>
      <trkpt lat="48.19249" lon="-3.81305">
        <ele>112</ele>
        <time>2020-05-17T15:43:17.611Z</time>
      </trkpt>
      <trkpt lat="48.19249" lon="-3.81308">
        <ele>112</ele>
        <time>2020-05-17T15:43:18.611Z</time>
      </trkpt>
      <trkpt lat="48.19248" lon="-3.81311">
        <ele>111</ele>
        <time>2020-05-17T15:43:19.611Z</time>
      </trkpt>
      <trkpt lat="48.19248" lon="-3.81315">
        <ele>110</ele>
        <time>2020-05-17T15:43:20.611Z</time>
      </trkpt>
      <trkpt lat="48.19249" lon="-3.81318">
        <ele>110</ele>
        <time>2020-05-17T15:43:21.611Z</time>
      </trkpt>
      <trkpt lat="48.1925" lon="-3.81321">
        <ele>109</ele>
        <time>2020-05-17T15:43:22.611Z</time>
      </trkpt>
      <trkpt lat="48.1925" lon="-3.81324">
        <ele>108</ele>
        <time>2020-05-17T15:43:23.611Z</time>
      </trkpt>
      <trkpt lat="48.1925" lon="-3.81327">
        <ele>107</ele>
        <time>2020-05-17T15:43:24.611Z</time>
      </trkpt>
      <trkpt lat="48.19251" lon="-3.81331">
        <ele>106</ele>
        <time>2020-05-17T15:43:25.611Z</time>
      </trkpt>
      <trkpt lat="48.19251" lon="-3.81336">
        <ele>106</ele>
        <time>2020-05-17T15:43:26.610Z</time>
      </trkpt>
      <trkpt lat="48.19251" lon="-3.8134">
        <ele>105</ele>
        <time>2020-05-17T15:43:27.610Z</time>
      </trkpt>
      <trkpt lat="48.19251" lon="-3.81344">
        <ele>105</ele>
        <time>2020-05-17T15:43:28.611Z</time>
      </trkpt>
      <trkpt lat="48.1925" lon="-3.81348">
        <ele>105</ele>
        <time>2020-05-17T15:43:29.611Z</time>
      </trkpt>
      <trkpt lat="48.1925" lon="-3.81353">
        <ele>104</ele>
        <time>2020-05-17T15:43:30.610Z</time>
      </trkpt>
      <trkpt lat="48.1925" lon="-3.81357">
        <ele>104</ele>
        <time>2020-05-17T15:43:31.611Z</time>
      </trkpt>
      <trkpt lat="48.19249" lon="-3.81361">
        <ele>104</ele>
        <time>2020-05-17T15:43:32.611Z</time>
      </trkpt>
      <trkpt lat="48.19249" lon="-3.81364">
        <ele>103</ele>
        <time>2020-05-17T15:43:33.611Z</time>
      </trkpt>
      <trkpt lat="48.19249" lon="-3.81369">
        <ele>103</ele>
        <time>2020-05-17T15:43:34.611Z</time>
      </trkpt>
      <trkpt lat="48.19249" lon="-3.81373">
        <ele>103</ele>
        <time>2020-05-17T15:43:35.611Z</time>
      </trkpt>
      <trkpt lat="48.19248" lon="-3.81378">
        <ele>103</ele>
        <time>2020-05-17T15:43:36.610Z</time>
      </trkpt>
      <trkpt lat="48.19248" lon="-3.81382">
        <ele>103</ele>
        <time>2020-05-17T15:43:37.611Z</time>
      </trkpt>
      <trkpt lat="48.19247" lon="-3.81387">
        <ele>103</ele>
        <time>2020-05-17T15:43:38.611Z</time>
      </trkpt>
      <trkpt lat="48.19247" lon="-3.81393">
        <ele>104</ele>
        <time>2020-05-17T15:43:39.611Z</time>
      </trkpt>
      <trkpt lat="48.19245" lon="-3.81397">
        <ele>104</ele>
        <time>2020-05-17T15:43:40.610Z</time>
      </trkpt>
      <trkpt lat="48.19245" lon="-3.81401">
        <ele>105</ele>
        <time>2020-05-17T15:43:41.611Z</time>
      </trkpt>
      <trkpt lat="48.19243" lon="-3.81406">
        <ele>106</ele>
        <time>2020-05-17T15:43:42.611Z</time>
      </trkpt>
      <trkpt lat="48.19242" lon="-3.81411">
        <ele>106</ele>
        <time>2020-05-17T15:43:43.611Z</time>
      </trkpt>
      <trkpt lat="48.1924" lon="-3.81415">
        <ele>107</ele>
        <time>2020-05-17T15:43:44.611Z</time>
      </trkpt>
      <trkpt lat="48.19238" lon="-3.81417">
        <ele>109</ele>
        <time>2020-05-17T15:43:45.610Z</time>
      </trkpt>
      <trkpt lat="48.19234" lon="-3.81419">
        <ele>110</ele>
        <time>2020-05-17T15:43:46.610Z</time>
      </trkpt>
      <trkpt lat="48.19232" lon="-3.81419">
        <ele>111</ele>
        <time>2020-05-17T15:43:47.611Z</time>
      </trkpt>
      <trkpt lat="48.19228" lon="-3.81419">
        <ele>113</ele>
        <time>2020-05-17T15:43:48.611Z</time>
      </trkpt>
      <trkpt lat="48.19224" lon="-3.81418">
        <ele>114</ele>
        <time>2020-05-17T15:43:49.611Z</time>
      </trkpt>
      <trkpt lat="48.19222" lon="-3.81417">
        <ele>114</ele>
        <time>2020-05-17T15:43:50.611Z</time>
      </trkpt>
      <trkpt lat="48.19218" lon="-3.81416">
        <ele>114</ele>
        <time>2020-05-17T15:43:51.610Z</time>
      </trkpt>
      <trkpt lat="48.19215" lon="-3.81415">
        <ele>115</ele>
        <time>2020-05-17T15:43:52.611Z</time>
      </trkpt>
      <trkpt lat="48.19212" lon="-3.81414">
        <ele>115</ele>
        <time>2020-05-17T15:43:53.611Z</time>
      </trkpt>
      <trkpt lat="48.19208" lon="-3.81413">
        <ele>116</ele>
        <time>2020-05-17T15:43:54.611Z</time>
      </trkpt>
      <trkpt lat="48.19205" lon="-3.81412">
        <ele>117</ele>
        <time>2020-05-17T15:43:55.610Z</time>
      </trkpt>
      <trkpt lat="48.19202" lon="-3.81411">
        <ele>117</ele>
        <time>2020-05-17T15:43:56.611Z</time>
      </trkpt>
      <trkpt lat="48.19198" lon="-3.81411">
        <ele>118</ele>
        <time>2020-05-17T15:43:57.610Z</time>
      </trkpt>
      <trkpt lat="48.19195" lon="-3.8141">
        <ele>118</ele>
        <time>2020-05-17T15:43:58.611Z</time>
      </trkpt>
      <trkpt lat="48.19191" lon="-3.8141">
        <ele>119</ele>
        <time>2020-05-17T15:43:59.611Z</time>
      </trkpt>
      <trkpt lat="48.19188" lon="-3.81409">
        <ele>119</ele>
        <time>2020-05-17T15:44:00.611Z</time>
      </trkpt>
      <trkpt lat="48.19185" lon="-3.81409">
        <ele>119</ele>
        <time>2020-05-17T15:44:01.611Z</time>
      </trkpt>
      <trkpt lat="48.19182" lon="-3.81408">
        <ele>120</ele>
        <time>2020-05-17T15:44:02.611Z</time>
      </trkpt>
      <trkpt lat="48.19178" lon="-3.81408">
        <ele>120</ele>
        <time>2020-05-17T15:44:03.611Z</time>
      </trkpt>
      <trkpt lat="48.19174" lon="-3.81407">
        <ele>121</ele>
        <time>2020-05-17T15:44:04.610Z</time>
      </trkpt>
      <trkpt lat="48.19171" lon="-3.81407">
        <ele>121</ele>
        <time>2020-05-17T15:44:05.611Z</time>
      </trkpt>
      <trkpt lat="48.19168" lon="-3.81407">
        <ele>121</ele>
        <time>2020-05-17T15:44:06.611Z</time>
      </trkpt>
      <trkpt lat="48.19165" lon="-3.81407">
        <ele>121</ele>
        <time>2020-05-17T15:44:07.611Z</time>
      </trkpt>
      <trkpt lat="48.19161" lon="-3.81407">
        <ele>122</ele>
        <time>2020-05-17T15:44:08.611Z</time>
      </trkpt>
      <trkpt lat="48.19157" lon="-3.81407">
        <ele>122</ele>
        <time>2020-05-17T15:44:09.611Z</time>
      </trkpt>
      <trkpt lat="48.19155" lon="-3.81408">
        <ele>121</ele>
        <time>2020-05-17T15:44:10.611Z</time>
      </trkpt>
      <trkpt lat="48.19152" lon="-3.81409">
        <ele>121</ele>
        <time>2020-05-17T15:44:11.611Z</time>
      </trkpt>
      <trkpt lat="48.19148" lon="-3.8141">
        <ele>121</ele>
        <time>2020-05-17T15:44:12.611Z</time>
      </trkpt>
      <trkpt lat="48.19145" lon="-3.81412">
        <ele>122</ele>
        <time>2020-05-17T15:44:13.611Z</time>
      </trkpt>
      <trkpt lat="48.19143" lon="-3.81414">
        <ele>122</ele>
        <time>2020-05-17T15:44:14.611Z</time>
      </trkpt>
      <trkpt lat="48.1914" lon="-3.81416">
        <ele>122</ele>
        <time>2020-05-17T15:44:15.610Z</time>
      </trkpt>
      <trkpt lat="48.19137" lon="-3.81418">
        <ele>122</ele>
        <time>2020-05-17T15:44:16.611Z</time>
      </trkpt>
      <trkpt lat="48.19133" lon="-3.8142">
        <ele>122</ele>
        <time>2020-05-17T15:44:17.611Z</time>
      </trkpt>
      <trkpt lat="48.1913" lon="-3.81423">
        <ele>122</ele>
        <time>2020-05-17T15:44:18.611Z</time>
      </trkpt>
      <trkpt lat="48.19127" lon="-3.81425">
        <ele>122</ele>
        <time>2020-05-17T15:44:19.610Z</time>
      </trkpt>
      <trkpt lat="48.19124" lon="-3.81428">
        <ele>123</ele>
        <time>2020-05-17T15:44:20.611Z</time>
      </trkpt>
      <trkpt lat="48.1912" lon="-3.81431">
        <ele>123</ele>
        <time>2020-05-17T15:44:21.610Z</time>
      </trkpt>
      <trkpt lat="48.19118" lon="-3.81432">
        <ele>123</ele>
        <time>2020-05-17T15:44:22.610Z</time>
      </trkpt>
      <trkpt lat="48.19114" lon="-3.81433">
        <ele>123</ele>
        <time>2020-05-17T15:44:23.611Z</time>
      </trkpt>
      <trkpt lat="48.19111" lon="-3.81433">
        <ele>123</ele>
        <time>2020-05-17T15:44:24.611Z</time>
      </trkpt>
      <trkpt lat="48.19108" lon="-3.81432">
        <ele>122</ele>
        <time>2020-05-17T15:44:25.611Z</time>
      </trkpt>
      <trkpt lat="48.19105" lon="-3.81432">
        <ele>122</ele>
        <time>2020-05-17T15:44:26.611Z</time>
      </trkpt>
      <trkpt lat="48.19101" lon="-3.81431">
        <ele>122</ele>
        <time>2020-05-17T15:44:27.610Z</time>
      </trkpt>
      <trkpt lat="48.19098" lon="-3.8143">
        <ele>121</ele>
        <time>2020-05-17T15:44:28.611Z</time>
      </trkpt>
      <trkpt lat="48.19096" lon="-3.81428">
        <ele>121</ele>
        <time>2020-05-17T15:44:29.611Z</time>
      </trkpt>
      <trkpt lat="48.19094" lon="-3.81426">
        <ele>120</ele>
        <time>2020-05-17T15:44:30.611Z</time>
      </trkpt>
      <trkpt lat="48.19092" lon="-3.81422">
        <ele>120</ele>
        <time>2020-05-17T15:44:31.611Z</time>
      </trkpt>
      <trkpt lat="48.19091" lon="-3.81418">
        <ele>121</ele>
        <time>2020-05-17T15:44:32.611Z</time>
      </trkpt>
      <trkpt lat="48.1909" lon="-3.81413">
        <ele>121</ele>
        <time>2020-05-17T15:44:33.611Z</time>
      </trkpt>
      <trkpt lat="48.19089" lon="-3.81409">
        <ele>121</ele>
        <time>2020-05-17T15:44:34.611Z</time>
      </trkpt>
      <trkpt lat="48.19089" lon="-3.81404">
        <ele>121</ele>
        <time>2020-05-17T15:44:35.611Z</time>
      </trkpt>
      <trkpt lat="48.19087" lon="-3.814">
        <ele>122</ele>
        <time>2020-05-17T15:44:36.611Z</time>
      </trkpt>
      <trkpt lat="48.19086" lon="-3.81395">
        <ele>122</ele>
        <time>2020-05-17T15:44:37.610Z</time>
      </trkpt>
      <trkpt lat="48.19085" lon="-3.81392">
        <ele>122</ele>
        <time>2020-05-17T15:44:38.611Z</time>
      </trkpt>
      <trkpt lat="48.19085" lon="-3.81389">
        <ele>123</ele>
        <time>2020-05-17T15:44:39.611Z</time>
      </trkpt>
      <trkpt lat="48.19085" lon="-3.81387">
        <ele>123</ele>
        <time>2020-05-17T15:44:40.611Z</time>
      </trkpt>
      <trkpt lat="48.19086" lon="-3.81386">
        <ele>124</ele>
        <time>2020-05-17T15:44:41.610Z</time>
      </trkpt>
      <trkpt lat="48.19087" lon="-3.81386">
        <ele>124</ele>
        <time>2020-05-17T15:44:42.611Z</time>
      </trkpt>
      <trkpt lat="48.19088" lon="-3.81386">
        <ele>125</ele>
        <time>2020-05-17T15:44:43.610Z</time>
      </trkpt>
      <trkpt lat="48.19089" lon="-3.81386">
        <ele>125</ele>
        <time>2020-05-17T15:44:44.610Z</time>
      </trkpt>
      <trkpt lat="48.19089" lon="-3.81386">
        <ele>125</ele>
        <time>2020-05-17T15:44:45.611Z</time>
      </trkpt>
      <trkpt lat="48.19089" lon="-3.81386">
        <ele>125</ele>
        <time>2020-05-17T15:44:46.611Z</time>
      </trkpt>
      <trkpt lat="48.19092" lon="-3.81382">
        <ele>128</ele>
        <time>2020-05-17T15:44:47.610Z</time>
      </trkpt>
      <trkpt lat="48.19094" lon="-3.81381">
        <ele>129</ele>
        <time>2020-05-17T15:44:48.611Z</time>
      </trkpt>
      <trkpt lat="48.19094" lon="-3.81381">
        <ele>129</ele>
        <time>2020-05-17T15:44:49.611Z</time>
      </trkpt>
      <trkpt lat="48.19094" lon="-3.81381">
        <ele>129</ele>
        <time>2020-05-17T15:44:50.610Z</time>
      </trkpt>
    </trkseg>
  </trk>
</gpx>